<?xml version="1.0" encoding="UTF-8" standalone="no" ?>
<gpx xmlns="http://www.topografix.com/GPX/1/1" xmlns:xsi="http://www.w3.org/2001/XMLSchema-instance" xsi:schemaLocation="http://www.topografix.com/GPX/1/1 http://www.topografix.com/GPX/1/1/gpx.xsd" version="1.1" creator="VisuGPX - https://www.visugpx.com">
  <metadata>
    <name>Dark Trail 2021 - Dark Trail Médium sur TraceDeTrail.fr</name>
    <desc><![CDATA[Dark trail 20 km ]]></desc>
  </metadata>
  <trk>
    <name><![CDATA[Dark Trail 2021 - Dark Trail Médium sur TraceDeTrail.fr]]></name>
    <extensions>
      <line xmlns="http://www.topografix.com/GPX/gpx_style/0/2">
        <color>0000FF</color>
        <width>4</width>
      </line>
    </extensions>
    <trkseg>
      <trkpt lat="46.52321" lon="5.61975">
        <ele>477</ele>
        <time>2000-01-01T01:53:26.000Z</time>
      </trkpt>
      <trkpt lat="46.52344" lon="5.62019">
        <ele>475</ele>
        <time>2000-01-01T01:53:36.000Z</time>
      </trkpt>
      <trkpt lat="46.52318" lon="5.62024">
        <ele>474</ele>
        <time>2000-01-01T01:53:46.000Z</time>
      </trkpt>
      <trkpt lat="46.52305" lon="5.62034">
        <ele>476.6</ele>
        <time>2000-01-01T01:53:56.000Z</time>
      </trkpt>
      <trkpt lat="46.52285" lon="5.62083">
        <ele>472</ele>
        <time>2000-01-01T01:54:06.000Z</time>
      </trkpt>
      <trkpt lat="46.52251" lon="5.621">
        <ele>472</ele>
        <time>2000-01-01T01:54:16.000Z</time>
      </trkpt>
      <trkpt lat="46.52225" lon="5.62127">
        <ele>472</ele>
        <time>2000-01-01T01:54:26.000Z</time>
      </trkpt>
      <trkpt lat="46.52206" lon="5.62155">
        <ele>472</ele>
        <time>2000-01-01T01:54:36.000Z</time>
      </trkpt>
      <trkpt lat="46.52185" lon="5.62195">
        <ele>474</ele>
        <time>2000-01-01T01:54:46.000Z</time>
      </trkpt>
      <trkpt lat="46.52168" lon="5.62227">
        <ele>475</ele>
        <time>2000-01-01T01:54:56.000Z</time>
      </trkpt>
      <trkpt lat="46.52147" lon="5.62244">
        <ele>476</ele>
        <time>2000-01-01T01:55:06.000Z</time>
      </trkpt>
      <trkpt lat="46.52126" lon="5.62258">
        <ele>476</ele>
        <time>2000-01-01T01:55:16.000Z</time>
      </trkpt>
      <trkpt lat="46.52105" lon="5.62256">
        <ele>477</ele>
        <time>2000-01-01T01:55:26.000Z</time>
      </trkpt>
      <trkpt lat="46.52069" lon="5.62241">
        <ele>479</ele>
        <time>2000-01-01T01:55:36.000Z</time>
      </trkpt>
      <trkpt lat="46.52039" lon="5.62221">
        <ele>479</ele>
        <time>2000-01-01T01:55:46.000Z</time>
      </trkpt>
      <trkpt lat="46.52019" lon="5.62223">
        <ele>477</ele>
        <time>2000-01-01T01:55:56.000Z</time>
      </trkpt>
      <trkpt lat="46.52002" lon="5.6225">
        <ele>475</ele>
        <time>2000-01-01T01:56:06.000Z</time>
      </trkpt>
      <trkpt lat="46.51982" lon="5.62282">
        <ele>475</ele>
        <time>2000-01-01T01:56:16.000Z</time>
      </trkpt>
      <trkpt lat="46.51961" lon="5.62309">
        <ele>474</ele>
        <time>2000-01-01T01:56:26.000Z</time>
      </trkpt>
      <trkpt lat="46.51937" lon="5.62334">
        <ele>470</ele>
        <time>2000-01-01T01:56:36.000Z</time>
      </trkpt>
      <trkpt lat="46.51909" lon="5.62362">
        <ele>464</ele>
        <time>2000-01-01T01:56:46.000Z</time>
      </trkpt>
      <trkpt lat="46.51892" lon="5.6239">
        <ele>460</ele>
        <time>2000-01-01T01:56:56.000Z</time>
      </trkpt>
      <trkpt lat="46.51868" lon="5.62432">
        <ele>457</ele>
        <time>2000-01-01T01:57:06.000Z</time>
      </trkpt>
      <trkpt lat="46.51847" lon="5.62443">
        <ele>457</ele>
        <time>2000-01-01T01:57:16.000Z</time>
      </trkpt>
      <trkpt lat="46.51834" lon="5.62447">
        <ele>464.1</ele>
        <time>2000-01-01T01:57:26.000Z</time>
      </trkpt>
      <trkpt lat="46.51826" lon="5.62444">
        <ele>457</ele>
        <time>2000-01-01T01:57:36.000Z</time>
      </trkpt>
      <trkpt lat="46.518" lon="5.62444">
        <ele>460</ele>
        <time>2000-01-01T01:57:46.000Z</time>
      </trkpt>
      <trkpt lat="46.5178" lon="5.62445">
        <ele>463</ele>
        <time>2000-01-01T01:57:56.000Z</time>
      </trkpt>
      <trkpt lat="46.51756" lon="5.62449">
        <ele>464</ele>
        <time>2000-01-01T01:58:06.000Z</time>
      </trkpt>
      <trkpt lat="46.51732" lon="5.62457">
        <ele>464</ele>
        <time>2000-01-01T01:58:16.000Z</time>
      </trkpt>
      <trkpt lat="46.51706" lon="5.62466">
        <ele>464</ele>
        <time>2000-01-01T01:58:26.000Z</time>
      </trkpt>
      <trkpt lat="46.51675" lon="5.62464">
        <ele>464</ele>
        <time>2000-01-01T01:58:36.000Z</time>
      </trkpt>
      <trkpt lat="46.51649" lon="5.62464">
        <ele>466</ele>
        <time>2000-01-01T01:58:46.000Z</time>
      </trkpt>
      <trkpt lat="46.51627" lon="5.62467">
        <ele>468</ele>
        <time>2000-01-01T01:58:56.000Z</time>
      </trkpt>
      <trkpt lat="46.51605" lon="5.62476">
        <ele>469</ele>
        <time>2000-01-01T01:59:06.000Z</time>
      </trkpt>
      <trkpt lat="46.51584" lon="5.62496">
        <ele>469</ele>
        <time>2000-01-01T01:59:16.000Z</time>
      </trkpt>
      <trkpt lat="46.51562" lon="5.62521">
        <ele>469</ele>
        <time>2000-01-01T01:59:26.000Z</time>
      </trkpt>
      <trkpt lat="46.51529" lon="5.62551">
        <ele>467</ele>
        <time>2000-01-01T01:59:36.000Z</time>
      </trkpt>
      <trkpt lat="46.5153" lon="5.62547">
        <ele>465.6</ele>
        <time>2000-01-01T01:59:46.000Z</time>
      </trkpt>
      <trkpt lat="46.51534" lon="5.6255">
        <ele>465.9</ele>
        <time>2000-01-01T01:59:56.000Z</time>
      </trkpt>
      <trkpt lat="46.5152" lon="5.62553">
        <ele>467</ele>
        <time>2000-01-01T02:00:06.000Z</time>
      </trkpt>
      <trkpt lat="46.51501" lon="5.62559">
        <ele>466</ele>
        <time>2000-01-01T02:00:16.000Z</time>
      </trkpt>
      <trkpt lat="46.51482" lon="5.6257">
        <ele>466</ele>
        <time>2000-01-01T02:00:26.000Z</time>
      </trkpt>
      <trkpt lat="46.51466" lon="5.62585">
        <ele>465</ele>
        <time>2000-01-01T02:00:36.000Z</time>
      </trkpt>
      <trkpt lat="46.51441" lon="5.62618">
        <ele>464</ele>
        <time>2000-01-01T02:00:46.000Z</time>
      </trkpt>
      <trkpt lat="46.51411" lon="5.62643">
        <ele>461</ele>
        <time>2000-01-01T02:00:56.000Z</time>
      </trkpt>
      <trkpt lat="46.51393" lon="5.62652">
        <ele>459.4</ele>
        <time>2000-01-01T02:01:06.000Z</time>
      </trkpt>
      <trkpt lat="46.51379" lon="5.62657">
        <ele>458</ele>
        <time>2000-01-01T02:01:16.000Z</time>
      </trkpt>
      <trkpt lat="46.51365" lon="5.62657">
        <ele>457.9</ele>
        <time>2000-01-01T02:01:26.000Z</time>
      </trkpt>
      <trkpt lat="46.51357" lon="5.62646">
        <ele>458</ele>
        <time>2000-01-01T02:01:36.000Z</time>
      </trkpt>
      <trkpt lat="46.5135" lon="5.62629">
        <ele>458.5</ele>
        <time>2000-01-01T02:01:46.000Z</time>
      </trkpt>
      <trkpt lat="46.51339" lon="5.62612">
        <ele>458</ele>
        <time>2000-01-01T02:01:56.000Z</time>
      </trkpt>
      <trkpt lat="46.51323" lon="5.62589">
        <ele>459</ele>
        <time>2000-01-01T02:02:06.000Z</time>
      </trkpt>
      <trkpt lat="46.51313" lon="5.62578">
        <ele>459</ele>
        <time>2000-01-01T02:02:16.000Z</time>
      </trkpt>
      <trkpt lat="46.51309" lon="5.62564">
        <ele>459</ele>
        <time>2000-01-01T02:02:26.000Z</time>
      </trkpt>
      <trkpt lat="46.51302" lon="5.62549">
        <ele>459.8</ele>
        <time>2000-01-01T02:02:36.000Z</time>
      </trkpt>
      <trkpt lat="46.51294" lon="5.62545">
        <ele>460</ele>
        <time>2000-01-01T02:02:46.000Z</time>
      </trkpt>
      <trkpt lat="46.5128" lon="5.62529">
        <ele>460</ele>
        <time>2000-01-01T02:02:56.000Z</time>
      </trkpt>
      <trkpt lat="46.5127" lon="5.6252">
        <ele>461</ele>
        <time>2000-01-01T02:03:06.000Z</time>
      </trkpt>
      <trkpt lat="46.51254" lon="5.62514">
        <ele>460.1</ele>
        <time>2000-01-01T02:03:16.000Z</time>
      </trkpt>
      <trkpt lat="46.51242" lon="5.62503">
        <ele>462</ele>
        <time>2000-01-01T02:03:26.000Z</time>
      </trkpt>
      <trkpt lat="46.51234" lon="5.625">
        <ele>460.8</ele>
        <time>2000-01-01T02:03:36.000Z</time>
      </trkpt>
      <trkpt lat="46.51228" lon="5.62489">
        <ele>460.7</ele>
        <time>2000-01-01T02:03:46.000Z</time>
      </trkpt>
      <trkpt lat="46.51217" lon="5.62474">
        <ele>462</ele>
        <time>2000-01-01T02:03:56.000Z</time>
      </trkpt>
      <trkpt lat="46.51211" lon="5.62465">
        <ele>460.9</ele>
        <time>2000-01-01T02:04:06.000Z</time>
      </trkpt>
      <trkpt lat="46.512" lon="5.62452">
        <ele>462</ele>
        <time>2000-01-01T02:04:16.000Z</time>
      </trkpt>
      <trkpt lat="46.51183" lon="5.62448">
        <ele>461.6</ele>
        <time>2000-01-01T02:04:26.000Z</time>
      </trkpt>
      <trkpt lat="46.51168" lon="5.62448">
        <ele>464</ele>
        <time>2000-01-01T02:04:36.000Z</time>
      </trkpt>
      <trkpt lat="46.51152" lon="5.62446">
        <ele>461.7</ele>
        <time>2000-01-01T02:04:46.000Z</time>
      </trkpt>
      <trkpt lat="46.51141" lon="5.62434">
        <ele>464</ele>
        <time>2000-01-01T02:04:56.000Z</time>
      </trkpt>
      <trkpt lat="46.51115" lon="5.62417">
        <ele>464</ele>
        <time>2000-01-01T02:05:06.000Z</time>
      </trkpt>
      <trkpt lat="46.51096" lon="5.62411">
        <ele>463</ele>
        <time>2000-01-01T02:05:16.000Z</time>
      </trkpt>
      <trkpt lat="46.51088" lon="5.62412">
        <ele>463.2</ele>
        <time>2000-01-01T02:05:26.000Z</time>
      </trkpt>
      <trkpt lat="46.51068" lon="5.62421">
        <ele>462</ele>
        <time>2000-01-01T02:05:36.000Z</time>
      </trkpt>
      <trkpt lat="46.51052" lon="5.62419">
        <ele>462.2</ele>
        <time>2000-01-01T02:05:46.000Z</time>
      </trkpt>
      <trkpt lat="46.51036" lon="5.62406">
        <ele>462</ele>
        <time>2000-01-01T02:05:56.000Z</time>
      </trkpt>
      <trkpt lat="46.51024" lon="5.62399">
        <ele>458.5</ele>
        <time>2000-01-01T02:06:06.000Z</time>
      </trkpt>
      <trkpt lat="46.51018" lon="5.62377">
        <ele>462</ele>
        <time>2000-01-01T02:06:16.000Z</time>
      </trkpt>
      <trkpt lat="46.50996" lon="5.62371">
        <ele>462</ele>
        <time>2000-01-01T02:06:26.000Z</time>
      </trkpt>
      <trkpt lat="46.50973" lon="5.62371">
        <ele>462</ele>
        <time>2000-01-01T02:06:36.000Z</time>
      </trkpt>
      <trkpt lat="46.50951" lon="5.62375">
        <ele>461</ele>
        <time>2000-01-01T02:06:46.000Z</time>
      </trkpt>
      <trkpt lat="46.50944" lon="5.62373">
        <ele>448.6</ele>
        <time>2000-01-01T02:06:56.000Z</time>
      </trkpt>
      <trkpt lat="46.50931" lon="5.62378">
        <ele>460</ele>
        <time>2000-01-01T02:07:06.000Z</time>
      </trkpt>
      <trkpt lat="46.50919" lon="5.62386">
        <ele>448.7</ele>
        <time>2000-01-01T02:07:16.000Z</time>
      </trkpt>
      <trkpt lat="46.50898" lon="5.62396">
        <ele>457</ele>
        <time>2000-01-01T02:07:26.000Z</time>
      </trkpt>
      <trkpt lat="46.50875" lon="5.62398">
        <ele>456</ele>
        <time>2000-01-01T02:07:36.000Z</time>
      </trkpt>
      <trkpt lat="46.50839" lon="5.62396">
        <ele>453</ele>
        <time>2000-01-01T02:07:46.000Z</time>
      </trkpt>
      <trkpt lat="46.5082" lon="5.62401">
        <ele>451</ele>
        <time>2000-01-01T02:07:56.000Z</time>
      </trkpt>
      <trkpt lat="46.50804" lon="5.62415">
        <ele>446.9</ele>
        <time>2000-01-01T02:08:06.000Z</time>
      </trkpt>
      <trkpt lat="46.50783" lon="5.6243">
        <ele>451</ele>
        <time>2000-01-01T02:08:16.000Z</time>
      </trkpt>
      <trkpt lat="46.50763" lon="5.62451">
        <ele>450</ele>
        <time>2000-01-01T02:08:26.000Z</time>
      </trkpt>
      <trkpt lat="46.50747" lon="5.62473">
        <ele>446</ele>
        <time>2000-01-01T02:08:36.000Z</time>
      </trkpt>
      <trkpt lat="46.50723" lon="5.62475">
        <ele>444</ele>
        <time>2000-01-01T02:08:46.000Z</time>
      </trkpt>
      <trkpt lat="46.50697" lon="5.62478">
        <ele>441</ele>
        <time>2000-01-01T02:08:56.000Z</time>
      </trkpt>
      <trkpt lat="46.50674" lon="5.62499">
        <ele>438</ele>
        <time>2000-01-01T02:09:06.000Z</time>
      </trkpt>
      <trkpt lat="46.50651" lon="5.62522">
        <ele>436</ele>
        <time>2000-01-01T02:09:16.000Z</time>
      </trkpt>
      <trkpt lat="46.50633" lon="5.62545">
        <ele>432</ele>
        <time>2000-01-01T02:09:26.000Z</time>
      </trkpt>
      <trkpt lat="46.50623" lon="5.62605">
        <ele>430</ele>
        <time>2000-01-01T02:09:36.000Z</time>
      </trkpt>
      <trkpt lat="46.50616" lon="5.62657">
        <ele>427</ele>
        <time>2000-01-01T02:09:46.000Z</time>
      </trkpt>
      <trkpt lat="46.50625" lon="5.62698">
        <ele>425</ele>
        <time>2000-01-01T02:09:56.000Z</time>
      </trkpt>
      <trkpt lat="46.50647" lon="5.62723">
        <ele>421</ele>
        <time>2000-01-01T02:10:06.000Z</time>
      </trkpt>
      <trkpt lat="46.50679" lon="5.62746">
        <ele>420</ele>
        <time>2000-01-01T02:10:16.000Z</time>
      </trkpt>
      <trkpt lat="46.50705" lon="5.6277">
        <ele>415</ele>
        <time>2000-01-01T02:10:26.000Z</time>
      </trkpt>
      <trkpt lat="46.50718" lon="5.62788">
        <ele>419.1</ele>
        <time>2000-01-01T02:10:36.000Z</time>
      </trkpt>
      <trkpt lat="46.50721" lon="5.62831">
        <ele>412</ele>
        <time>2000-01-01T02:10:46.000Z</time>
      </trkpt>
      <trkpt lat="46.50721" lon="5.62875">
        <ele>409</ele>
        <time>2000-01-01T02:10:56.000Z</time>
      </trkpt>
      <trkpt lat="46.5072" lon="5.62917">
        <ele>405</ele>
        <time>2000-01-01T02:11:06.000Z</time>
      </trkpt>
      <trkpt lat="46.50717" lon="5.62947">
        <ele>404</ele>
        <time>2000-01-01T02:11:16.000Z</time>
      </trkpt>
      <trkpt lat="46.50709" lon="5.62981">
        <ele>401</ele>
        <time>2000-01-01T02:11:26.000Z</time>
      </trkpt>
      <trkpt lat="46.50696" lon="5.63023">
        <ele>400</ele>
        <time>2000-01-01T02:11:36.000Z</time>
      </trkpt>
      <trkpt lat="46.50684" lon="5.63051">
        <ele>400</ele>
        <time>2000-01-01T02:11:46.000Z</time>
      </trkpt>
      <trkpt lat="46.5067" lon="5.63086">
        <ele>403</ele>
        <time>2000-01-01T02:11:56.000Z</time>
      </trkpt>
      <trkpt lat="46.50656" lon="5.63127">
        <ele>403</ele>
        <time>2000-01-01T02:12:06.000Z</time>
      </trkpt>
      <trkpt lat="46.50638" lon="5.63136">
        <ele>408.3</ele>
        <time>2000-01-01T02:12:16.000Z</time>
      </trkpt>
      <trkpt lat="46.50612" lon="5.63138">
        <ele>400</ele>
        <time>2000-01-01T02:12:26.000Z</time>
      </trkpt>
      <trkpt lat="46.50586" lon="5.63139">
        <ele>399</ele>
        <time>2000-01-01T02:12:36.000Z</time>
      </trkpt>
      <trkpt lat="46.50554" lon="5.63144">
        <ele>399</ele>
        <time>2000-01-01T02:12:46.000Z</time>
      </trkpt>
      <trkpt lat="46.50535" lon="5.63161">
        <ele>399</ele>
        <time>2000-01-01T02:12:56.000Z</time>
      </trkpt>
      <trkpt lat="46.50527" lon="5.63192">
        <ele>403</ele>
        <time>2000-01-01T02:13:06.000Z</time>
      </trkpt>
      <trkpt lat="46.50515" lon="5.63237">
        <ele>407</ele>
        <time>2000-01-01T02:13:16.000Z</time>
      </trkpt>
      <trkpt lat="46.50509" lon="5.63267">
        <ele>411</ele>
        <time>2000-01-01T02:13:26.000Z</time>
      </trkpt>
      <trkpt lat="46.50507" lon="5.63297">
        <ele>412</ele>
        <time>2000-01-01T02:13:36.000Z</time>
      </trkpt>
      <trkpt lat="46.50507" lon="5.63345">
        <ele>413</ele>
        <time>2000-01-01T02:13:46.000Z</time>
      </trkpt>
      <trkpt lat="46.50506" lon="5.63372">
        <ele>413</ele>
        <time>2000-01-01T02:13:56.000Z</time>
      </trkpt>
      <trkpt lat="46.50479" lon="5.6341">
        <ele>410</ele>
        <time>2000-01-01T02:14:06.000Z</time>
      </trkpt>
      <trkpt lat="46.50447" lon="5.63407">
        <ele>408</ele>
        <time>2000-01-01T02:14:16.000Z</time>
      </trkpt>
      <trkpt lat="46.50421" lon="5.63405">
        <ele>407</ele>
        <time>2000-01-01T02:14:26.000Z</time>
      </trkpt>
      <trkpt lat="46.5039" lon="5.63401">
        <ele>406</ele>
        <time>2000-01-01T02:14:36.000Z</time>
      </trkpt>
      <trkpt lat="46.50361" lon="5.63399">
        <ele>406</ele>
        <time>2000-01-01T02:14:46.000Z</time>
      </trkpt>
      <trkpt lat="46.50337" lon="5.63402">
        <ele>406</ele>
        <time>2000-01-01T02:14:56.000Z</time>
      </trkpt>
      <trkpt lat="46.5031" lon="5.6343">
        <ele>406</ele>
        <time>2000-01-01T02:15:06.000Z</time>
      </trkpt>
      <trkpt lat="46.50287" lon="5.63458">
        <ele>406</ele>
        <time>2000-01-01T02:15:16.000Z</time>
      </trkpt>
      <trkpt lat="46.50277" lon="5.63483">
        <ele>406</ele>
        <time>2000-01-01T02:15:26.000Z</time>
      </trkpt>
      <trkpt lat="46.50261" lon="5.63516">
        <ele>407</ele>
        <time>2000-01-01T02:15:36.000Z</time>
      </trkpt>
      <trkpt lat="46.50252" lon="5.63545">
        <ele>407</ele>
        <time>2000-01-01T02:15:46.000Z</time>
      </trkpt>
      <trkpt lat="46.50244" lon="5.63588">
        <ele>407</ele>
        <time>2000-01-01T02:15:56.000Z</time>
      </trkpt>
      <trkpt lat="46.5021" lon="5.63599">
        <ele>408</ele>
        <time>2000-01-01T02:16:06.000Z</time>
      </trkpt>
      <trkpt lat="46.50178" lon="5.63612">
        <ele>412</ele>
        <time>2000-01-01T02:16:16.000Z</time>
      </trkpt>
      <trkpt lat="46.50146" lon="5.63609">
        <ele>415</ele>
        <time>2000-01-01T02:16:26.000Z</time>
      </trkpt>
      <trkpt lat="46.50111" lon="5.63604">
        <ele>419</ele>
        <time>2000-01-01T02:16:36.000Z</time>
      </trkpt>
      <trkpt lat="46.50086" lon="5.6359">
        <ele>425</ele>
        <time>2000-01-01T02:16:46.000Z</time>
      </trkpt>
      <trkpt lat="46.50057" lon="5.63584">
        <ele>431</ele>
        <time>2000-01-01T02:16:56.000Z</time>
      </trkpt>
      <trkpt lat="46.50026" lon="5.63576">
        <ele>435</ele>
        <time>2000-01-01T02:17:06.000Z</time>
      </trkpt>
      <trkpt lat="46.49981" lon="5.63573">
        <ele>439</ele>
        <time>2000-01-01T02:17:16.000Z</time>
      </trkpt>
      <trkpt lat="46.49959" lon="5.63583">
        <ele>440</ele>
        <time>2000-01-01T02:17:26.000Z</time>
      </trkpt>
      <trkpt lat="46.49921" lon="5.63607">
        <ele>445</ele>
        <time>2000-01-01T02:17:36.000Z</time>
      </trkpt>
      <trkpt lat="46.49896" lon="5.63621">
        <ele>447</ele>
        <time>2000-01-01T02:17:46.000Z</time>
      </trkpt>
      <trkpt lat="46.49873" lon="5.63631">
        <ele>447</ele>
        <time>2000-01-01T02:17:56.000Z</time>
      </trkpt>
      <trkpt lat="46.49839" lon="5.63629">
        <ele>449</ele>
        <time>2000-01-01T02:18:06.000Z</time>
      </trkpt>
      <trkpt lat="46.49807" lon="5.63637">
        <ele>451</ele>
        <time>2000-01-01T02:18:16.000Z</time>
      </trkpt>
      <trkpt lat="46.49776" lon="5.63644">
        <ele>453</ele>
        <time>2000-01-01T02:18:26.000Z</time>
      </trkpt>
      <trkpt lat="46.49739" lon="5.63661">
        <ele>458</ele>
        <time>2000-01-01T02:18:36.000Z</time>
      </trkpt>
      <trkpt lat="46.49695" lon="5.63672">
        <ele>463</ele>
        <time>2000-01-01T02:18:46.000Z</time>
      </trkpt>
      <trkpt lat="46.49659" lon="5.63685">
        <ele>466</ele>
        <time>2000-01-01T02:18:56.000Z</time>
      </trkpt>
      <trkpt lat="46.49617" lon="5.63694">
        <ele>469</ele>
        <time>2000-01-01T02:19:06.000Z</time>
      </trkpt>
      <trkpt lat="46.49584" lon="5.637">
        <ele>471</ele>
        <time>2000-01-01T02:19:16.000Z</time>
      </trkpt>
      <trkpt lat="46.49554" lon="5.63705">
        <ele>474</ele>
        <time>2000-01-01T02:19:26.000Z</time>
      </trkpt>
      <trkpt lat="46.49538" lon="5.6372">
        <ele>476</ele>
        <time>2000-01-01T02:19:36.000Z</time>
      </trkpt>
      <trkpt lat="46.49508" lon="5.63744">
        <ele>480</ele>
        <time>2000-01-01T02:19:46.000Z</time>
      </trkpt>
      <trkpt lat="46.49477" lon="5.63758">
        <ele>484</ele>
        <time>2000-01-01T02:19:56.000Z</time>
      </trkpt>
      <trkpt lat="46.49452" lon="5.63751">
        <ele>486</ele>
        <time>2000-01-01T02:20:06.000Z</time>
      </trkpt>
      <trkpt lat="46.49421" lon="5.63733">
        <ele>498</ele>
        <time>2000-01-01T02:20:16.000Z</time>
      </trkpt>
      <trkpt lat="46.49395" lon="5.63712">
        <ele>508</ele>
        <time>2000-01-01T02:20:26.000Z</time>
      </trkpt>
      <trkpt lat="46.49362" lon="5.63689">
        <ele>509</ele>
        <time>2000-01-01T02:20:36.000Z</time>
      </trkpt>
      <trkpt lat="46.4934" lon="5.63678">
        <ele>508</ele>
        <time>2000-01-01T02:20:46.000Z</time>
      </trkpt>
      <trkpt lat="46.49315" lon="5.63675">
        <ele>508</ele>
        <time>2000-01-01T02:20:56.000Z</time>
      </trkpt>
      <trkpt lat="46.49284" lon="5.63669">
        <ele>507</ele>
        <time>2000-01-01T02:21:06.000Z</time>
      </trkpt>
      <trkpt lat="46.49261" lon="5.63651">
        <ele>506</ele>
        <time>2000-01-01T02:21:16.000Z</time>
      </trkpt>
      <trkpt lat="46.49218" lon="5.63642">
        <ele>500</ele>
        <time>2000-01-01T02:21:26.000Z</time>
      </trkpt>
      <trkpt lat="46.49194" lon="5.63651">
        <ele>502</ele>
        <time>2000-01-01T02:21:36.000Z</time>
      </trkpt>
      <trkpt lat="46.49178" lon="5.63656">
        <ele>502.5</ele>
        <time>2000-01-01T02:21:46.000Z</time>
      </trkpt>
      <trkpt lat="46.49155" lon="5.63675">
        <ele>504</ele>
        <time>2000-01-01T02:21:56.000Z</time>
      </trkpt>
      <trkpt lat="46.49132" lon="5.63687">
        <ele>505</ele>
        <time>2000-01-01T02:22:06.000Z</time>
      </trkpt>
      <trkpt lat="46.49112" lon="5.63701">
        <ele>506</ele>
        <time>2000-01-01T02:22:16.000Z</time>
      </trkpt>
      <trkpt lat="46.4909" lon="5.63705">
        <ele>506</ele>
        <time>2000-01-01T02:22:26.000Z</time>
      </trkpt>
      <trkpt lat="46.49062" lon="5.63708">
        <ele>506</ele>
        <time>2000-01-01T02:22:36.000Z</time>
      </trkpt>
      <trkpt lat="46.49037" lon="5.63719">
        <ele>510</ele>
        <time>2000-01-01T02:22:46.000Z</time>
      </trkpt>
      <trkpt lat="46.49016" lon="5.63732">
        <ele>518</ele>
        <time>2000-01-01T02:22:56.000Z</time>
      </trkpt>
      <trkpt lat="46.48982" lon="5.63752">
        <ele>528</ele>
        <time>2000-01-01T02:23:06.000Z</time>
      </trkpt>
      <trkpt lat="46.48957" lon="5.63765">
        <ele>533</ele>
        <time>2000-01-01T02:23:16.000Z</time>
      </trkpt>
      <trkpt lat="46.48929" lon="5.63789">
        <ele>540</ele>
        <time>2000-01-01T02:23:26.000Z</time>
      </trkpt>
      <trkpt lat="46.48929" lon="5.63829">
        <ele>546</ele>
        <time>2000-01-01T02:23:36.000Z</time>
      </trkpt>
      <trkpt lat="46.48913" lon="5.63856">
        <ele>547</ele>
        <time>2000-01-01T02:23:46.000Z</time>
      </trkpt>
      <trkpt lat="46.48884" lon="5.6387">
        <ele>547</ele>
        <time>2000-01-01T02:23:56.000Z</time>
      </trkpt>
      <trkpt lat="46.48852" lon="5.63888">
        <ele>547</ele>
        <time>2000-01-01T02:24:06.000Z</time>
      </trkpt>
      <trkpt lat="46.48818" lon="5.63909">
        <ele>539</ele>
        <time>2000-01-01T02:24:16.000Z</time>
      </trkpt>
      <trkpt lat="46.48791" lon="5.63921">
        <ele>533</ele>
        <time>2000-01-01T02:24:26.000Z</time>
      </trkpt>
      <trkpt lat="46.48764" lon="5.63938">
        <ele>531</ele>
        <time>2000-01-01T02:24:36.000Z</time>
      </trkpt>
      <trkpt lat="46.48731" lon="5.63951">
        <ele>530</ele>
        <time>2000-01-01T02:24:46.000Z</time>
      </trkpt>
      <trkpt lat="46.48701" lon="5.63958">
        <ele>529</ele>
        <time>2000-01-01T02:24:56.000Z</time>
      </trkpt>
      <trkpt lat="46.48674" lon="5.63966">
        <ele>526</ele>
        <time>2000-01-01T02:25:06.000Z</time>
      </trkpt>
      <trkpt lat="46.48646" lon="5.63977">
        <ele>525</ele>
        <time>2000-01-01T02:25:16.000Z</time>
      </trkpt>
      <trkpt lat="46.48647" lon="5.64025">
        <ele>505</ele>
        <time>2000-01-01T02:25:26.000Z</time>
      </trkpt>
      <trkpt lat="46.48648" lon="5.64057">
        <ele>496</ele>
        <time>2000-01-01T02:25:36.000Z</time>
      </trkpt>
      <trkpt lat="46.48649" lon="5.6409">
        <ele>490</ele>
        <time>2000-01-01T02:25:46.000Z</time>
      </trkpt>
      <trkpt lat="46.48674" lon="5.64098">
        <ele>488</ele>
        <time>2000-01-01T02:25:56.000Z</time>
      </trkpt>
      <trkpt lat="46.48707" lon="5.64097">
        <ele>486</ele>
        <time>2000-01-01T02:26:06.000Z</time>
      </trkpt>
      <trkpt lat="46.48735" lon="5.64096">
        <ele>483</ele>
        <time>2000-01-01T02:26:16.000Z</time>
      </trkpt>
      <trkpt lat="46.48757" lon="5.64101">
        <ele>477</ele>
        <time>2000-01-01T02:26:26.000Z</time>
      </trkpt>
      <trkpt lat="46.48783" lon="5.641">
        <ele>473</ele>
        <time>2000-01-01T02:26:36.000Z</time>
      </trkpt>
      <trkpt lat="46.48822" lon="5.641">
        <ele>473</ele>
        <time>2000-01-01T02:26:46.000Z</time>
      </trkpt>
      <trkpt lat="46.48859" lon="5.64112">
        <ele>477</ele>
        <time>2000-01-01T02:26:56.000Z</time>
      </trkpt>
      <trkpt lat="46.48881" lon="5.64128">
        <ele>477</ele>
        <time>2000-01-01T02:27:06.000Z</time>
      </trkpt>
      <trkpt lat="46.48917" lon="5.64117">
        <ele>478</ele>
        <time>2000-01-01T02:27:16.000Z</time>
      </trkpt>
      <trkpt lat="46.48956" lon="5.64129">
        <ele>478</ele>
        <time>2000-01-01T02:27:26.000Z</time>
      </trkpt>
      <trkpt lat="46.48985" lon="5.64135">
        <ele>478</ele>
        <time>2000-01-01T02:27:36.000Z</time>
      </trkpt>
      <trkpt lat="46.49014" lon="5.64129">
        <ele>477</ele>
        <time>2000-01-01T02:27:46.000Z</time>
      </trkpt>
      <trkpt lat="46.49045" lon="5.6412">
        <ele>475</ele>
        <time>2000-01-01T02:27:56.000Z</time>
      </trkpt>
      <trkpt lat="46.49069" lon="5.64121">
        <ele>473</ele>
        <time>2000-01-01T02:28:06.000Z</time>
      </trkpt>
      <trkpt lat="46.49094" lon="5.64125">
        <ele>473</ele>
        <time>2000-01-01T02:28:16.000Z</time>
      </trkpt>
      <trkpt lat="46.49137" lon="5.64129">
        <ele>472</ele>
        <time>2000-01-01T02:28:26.000Z</time>
      </trkpt>
      <trkpt lat="46.4917" lon="5.64132">
        <ele>472</ele>
        <time>2000-01-01T02:28:36.000Z</time>
      </trkpt>
      <trkpt lat="46.49199" lon="5.64133">
        <ele>471</ele>
        <time>2000-01-01T02:28:46.000Z</time>
      </trkpt>
      <trkpt lat="46.49226" lon="5.64138">
        <ele>470</ele>
        <time>2000-01-01T02:28:56.000Z</time>
      </trkpt>
      <trkpt lat="46.49266" lon="5.64144">
        <ele>469</ele>
        <time>2000-01-01T02:29:06.000Z</time>
      </trkpt>
      <trkpt lat="46.49306" lon="5.64152">
        <ele>468</ele>
        <time>2000-01-01T02:29:16.000Z</time>
      </trkpt>
      <trkpt lat="46.49334" lon="5.64156">
        <ele>468</ele>
        <time>2000-01-01T02:29:26.000Z</time>
      </trkpt>
      <trkpt lat="46.49363" lon="5.64155">
        <ele>469</ele>
        <time>2000-01-01T02:29:36.000Z</time>
      </trkpt>
      <trkpt lat="46.49387" lon="5.64154">
        <ele>469</ele>
        <time>2000-01-01T02:29:46.000Z</time>
      </trkpt>
      <trkpt lat="46.49413" lon="5.64154">
        <ele>469</ele>
        <time>2000-01-01T02:29:56.000Z</time>
      </trkpt>
      <trkpt lat="46.49436" lon="5.6415">
        <ele>469</ele>
        <time>2000-01-01T02:30:06.000Z</time>
      </trkpt>
      <trkpt lat="46.49461" lon="5.64146">
        <ele>467</ele>
        <time>2000-01-01T02:30:16.000Z</time>
      </trkpt>
      <trkpt lat="46.4948" lon="5.64131">
        <ele>465</ele>
        <time>2000-01-01T02:30:26.000Z</time>
      </trkpt>
      <trkpt lat="46.49517" lon="5.64117">
        <ele>464</ele>
        <time>2000-01-01T02:30:36.000Z</time>
      </trkpt>
      <trkpt lat="46.49558" lon="5.64114">
        <ele>463</ele>
        <time>2000-01-01T02:30:46.000Z</time>
      </trkpt>
      <trkpt lat="46.49602" lon="5.64104">
        <ele>462</ele>
        <time>2000-01-01T02:30:56.000Z</time>
      </trkpt>
      <trkpt lat="46.49629" lon="5.64092">
        <ele>462</ele>
        <time>2000-01-01T02:31:06.000Z</time>
      </trkpt>
      <trkpt lat="46.49663" lon="5.64089">
        <ele>460</ele>
        <time>2000-01-01T02:31:16.000Z</time>
      </trkpt>
      <trkpt lat="46.49702" lon="5.64082">
        <ele>459</ele>
        <time>2000-01-01T02:31:26.000Z</time>
      </trkpt>
      <trkpt lat="46.49734" lon="5.64086">
        <ele>458</ele>
        <time>2000-01-01T02:31:36.000Z</time>
      </trkpt>
      <trkpt lat="46.49751" lon="5.64073">
        <ele>456</ele>
        <time>2000-01-01T02:31:46.000Z</time>
      </trkpt>
      <trkpt lat="46.49763" lon="5.64052">
        <ele>454</ele>
        <time>2000-01-01T02:31:56.000Z</time>
      </trkpt>
      <trkpt lat="46.49776" lon="5.64028">
        <ele>450</ele>
        <time>2000-01-01T02:32:06.000Z</time>
      </trkpt>
      <trkpt lat="46.49792" lon="5.64006">
        <ele>449</ele>
        <time>2000-01-01T02:32:16.000Z</time>
      </trkpt>
      <trkpt lat="46.49816" lon="5.63985">
        <ele>447</ele>
        <time>2000-01-01T02:32:26.000Z</time>
      </trkpt>
      <trkpt lat="46.49834" lon="5.63971">
        <ele>446</ele>
        <time>2000-01-01T02:32:36.000Z</time>
      </trkpt>
      <trkpt lat="46.49861" lon="5.63967">
        <ele>442</ele>
        <time>2000-01-01T02:32:46.000Z</time>
      </trkpt>
      <trkpt lat="46.499" lon="5.63963">
        <ele>439</ele>
        <time>2000-01-01T02:32:56.000Z</time>
      </trkpt>
      <trkpt lat="46.49935" lon="5.63965">
        <ele>436</ele>
        <time>2000-01-01T02:33:06.000Z</time>
      </trkpt>
      <trkpt lat="46.49959" lon="5.63954">
        <ele>435</ele>
        <time>2000-01-01T02:33:16.000Z</time>
      </trkpt>
      <trkpt lat="46.49992" lon="5.63934">
        <ele>431</ele>
        <time>2000-01-01T02:33:26.000Z</time>
      </trkpt>
      <trkpt lat="46.50022" lon="5.63918">
        <ele>427</ele>
        <time>2000-01-01T02:33:36.000Z</time>
      </trkpt>
      <trkpt lat="46.50052" lon="5.63906">
        <ele>424</ele>
        <time>2000-01-01T02:33:46.000Z</time>
      </trkpt>
      <trkpt lat="46.50077" lon="5.63889">
        <ele>421</ele>
        <time>2000-01-01T02:33:56.000Z</time>
      </trkpt>
      <trkpt lat="46.50105" lon="5.6388">
        <ele>418</ele>
        <time>2000-01-01T02:34:06.000Z</time>
      </trkpt>
      <trkpt lat="46.50126" lon="5.63863">
        <ele>415</ele>
        <time>2000-01-01T02:34:16.000Z</time>
      </trkpt>
      <trkpt lat="46.50146" lon="5.63858">
        <ele>412</ele>
        <time>2000-01-01T02:34:26.000Z</time>
      </trkpt>
      <trkpt lat="46.50164" lon="5.63838">
        <ele>412</ele>
        <time>2000-01-01T02:34:36.000Z</time>
      </trkpt>
      <trkpt lat="46.50178" lon="5.63853">
        <ele>417.4</ele>
        <time>2000-01-01T02:34:46.000Z</time>
      </trkpt>
      <trkpt lat="46.50191" lon="5.63864">
        <ele>412</ele>
        <time>2000-01-01T02:34:56.000Z</time>
      </trkpt>
      <trkpt lat="46.50209" lon="5.63868">
        <ele>417.7</ele>
        <time>2000-01-01T02:35:06.000Z</time>
      </trkpt>
      <trkpt lat="46.50236" lon="5.63865">
        <ele>412</ele>
        <time>2000-01-01T02:35:16.000Z</time>
      </trkpt>
      <trkpt lat="46.50256" lon="5.63872">
        <ele>413</ele>
        <time>2000-01-01T02:35:26.000Z</time>
      </trkpt>
      <trkpt lat="46.50273" lon="5.63882">
        <ele>418.6</ele>
        <time>2000-01-01T02:35:36.000Z</time>
      </trkpt>
      <trkpt lat="46.50289" lon="5.63885">
        <ele>414</ele>
        <time>2000-01-01T02:35:46.000Z</time>
      </trkpt>
      <trkpt lat="46.50314" lon="5.63889">
        <ele>416</ele>
        <time>2000-01-01T02:35:56.000Z</time>
      </trkpt>
      <trkpt lat="46.50344" lon="5.63893">
        <ele>419</ele>
        <time>2000-01-01T02:36:06.000Z</time>
      </trkpt>
      <trkpt lat="46.50354" lon="5.63898">
        <ele>423.9</ele>
        <time>2000-01-01T02:36:16.000Z</time>
      </trkpt>
      <trkpt lat="46.50382" lon="5.63907">
        <ele>423</ele>
        <time>2000-01-01T02:36:26.000Z</time>
      </trkpt>
      <trkpt lat="46.50395" lon="5.63908">
        <ele>427</ele>
        <time>2000-01-01T02:36:36.000Z</time>
      </trkpt>
      <trkpt lat="46.50424" lon="5.63916">
        <ele>424</ele>
        <time>2000-01-01T02:36:46.000Z</time>
      </trkpt>
      <trkpt lat="46.5044" lon="5.63916">
        <ele>428.4</ele>
        <time>2000-01-01T02:36:56.000Z</time>
      </trkpt>
      <trkpt lat="46.50456" lon="5.63913">
        <ele>424</ele>
        <time>2000-01-01T02:37:06.000Z</time>
      </trkpt>
      <trkpt lat="46.50472" lon="5.63917">
        <ele>427.7</ele>
        <time>2000-01-01T02:37:16.000Z</time>
      </trkpt>
      <trkpt lat="46.50482" lon="5.63931">
        <ele>425</ele>
        <time>2000-01-01T02:37:26.000Z</time>
      </trkpt>
      <trkpt lat="46.50498" lon="5.63937">
        <ele>429.5</ele>
        <time>2000-01-01T02:37:36.000Z</time>
      </trkpt>
      <trkpt lat="46.50507" lon="5.63936">
        <ele>426</ele>
        <time>2000-01-01T02:37:46.000Z</time>
      </trkpt>
      <trkpt lat="46.50541" lon="5.63929">
        <ele>426</ele>
        <time>2000-01-01T02:37:56.000Z</time>
      </trkpt>
      <trkpt lat="46.50556" lon="5.63937">
        <ele>430.8</ele>
        <time>2000-01-01T02:38:06.000Z</time>
      </trkpt>
      <trkpt lat="46.50585" lon="5.63937">
        <ele>426</ele>
        <time>2000-01-01T02:38:16.000Z</time>
      </trkpt>
      <trkpt lat="46.50602" lon="5.63934">
        <ele>431</ele>
        <time>2000-01-01T02:38:26.000Z</time>
      </trkpt>
      <trkpt lat="46.50618" lon="5.63926">
        <ele>427</ele>
        <time>2000-01-01T02:38:36.000Z</time>
      </trkpt>
      <trkpt lat="46.50634" lon="5.63923">
        <ele>429.3</ele>
        <time>2000-01-01T02:38:46.000Z</time>
      </trkpt>
      <trkpt lat="46.50651" lon="5.6392">
        <ele>428</ele>
        <time>2000-01-01T02:38:56.000Z</time>
      </trkpt>
      <trkpt lat="46.50668" lon="5.63919">
        <ele>428.4</ele>
        <time>2000-01-01T02:39:06.000Z</time>
      </trkpt>
      <trkpt lat="46.50689" lon="5.63921">
        <ele>428</ele>
        <time>2000-01-01T02:39:16.000Z</time>
      </trkpt>
      <trkpt lat="46.50709" lon="5.63918">
        <ele>428</ele>
        <time>2000-01-01T02:39:26.000Z</time>
      </trkpt>
      <trkpt lat="46.50729" lon="5.6392">
        <ele>429</ele>
        <time>2000-01-01T02:39:36.000Z</time>
      </trkpt>
      <trkpt lat="46.50751" lon="5.63921">
        <ele>429</ele>
        <time>2000-01-01T02:39:46.000Z</time>
      </trkpt>
      <trkpt lat="46.50766" lon="5.63919">
        <ele>429.3</ele>
        <time>2000-01-01T02:39:56.000Z</time>
      </trkpt>
      <trkpt lat="46.50783" lon="5.63925">
        <ele>428</ele>
        <time>2000-01-01T02:40:06.000Z</time>
      </trkpt>
      <trkpt lat="46.50804" lon="5.63924">
        <ele>428</ele>
        <time>2000-01-01T02:40:16.000Z</time>
      </trkpt>
      <trkpt lat="46.50825" lon="5.63928">
        <ele>427</ele>
        <time>2000-01-01T02:40:26.000Z</time>
      </trkpt>
      <trkpt lat="46.5084" lon="5.63935">
        <ele>431.1</ele>
        <time>2000-01-01T02:40:36.000Z</time>
      </trkpt>
      <trkpt lat="46.50857" lon="5.63929">
        <ele>427</ele>
        <time>2000-01-01T02:40:46.000Z</time>
      </trkpt>
      <trkpt lat="46.50884" lon="5.63916">
        <ele>427</ele>
        <time>2000-01-01T02:40:56.000Z</time>
      </trkpt>
      <trkpt lat="46.50897" lon="5.63909">
        <ele>429.3</ele>
        <time>2000-01-01T02:41:06.000Z</time>
      </trkpt>
      <trkpt lat="46.50914" lon="5.63897">
        <ele>427</ele>
        <time>2000-01-01T02:41:16.000Z</time>
      </trkpt>
      <trkpt lat="46.5093" lon="5.63896">
        <ele>428.7</ele>
        <time>2000-01-01T02:41:26.000Z</time>
      </trkpt>
      <trkpt lat="46.50943" lon="5.63894">
        <ele>427</ele>
        <time>2000-01-01T02:41:36.000Z</time>
      </trkpt>
      <trkpt lat="46.50956" lon="5.63892">
        <ele>428.7</ele>
        <time>2000-01-01T02:41:46.000Z</time>
      </trkpt>
      <trkpt lat="46.50972" lon="5.63894">
        <ele>427</ele>
        <time>2000-01-01T02:41:56.000Z</time>
      </trkpt>
      <trkpt lat="46.50988" lon="5.63894">
        <ele>429.4</ele>
        <time>2000-01-01T02:42:06.000Z</time>
      </trkpt>
      <trkpt lat="46.51006" lon="5.63897">
        <ele>427</ele>
        <time>2000-01-01T02:42:16.000Z</time>
      </trkpt>
      <trkpt lat="46.5102" lon="5.63903">
        <ele>430.5</ele>
        <time>2000-01-01T02:42:26.000Z</time>
      </trkpt>
      <trkpt lat="46.51029" lon="5.63905">
        <ele>427</ele>
        <time>2000-01-01T02:42:36.000Z</time>
      </trkpt>
      <trkpt lat="46.51026" lon="5.63905">
        <ele>430.6</ele>
        <time>2000-01-01T02:42:46.000Z</time>
      </trkpt>
      <trkpt lat="46.51027" lon="5.63909">
        <ele>431</ele>
        <time>2000-01-01T02:42:56.000Z</time>
      </trkpt>
      <trkpt lat="46.51027" lon="5.63921">
        <ele>432.2</ele>
        <time>2000-01-01T02:43:06.000Z</time>
      </trkpt>
      <trkpt lat="46.51024" lon="5.6393">
        <ele>430</ele>
        <time>2000-01-01T02:43:16.000Z</time>
      </trkpt>
      <trkpt lat="46.51015" lon="5.63945">
        <ele>434.9</ele>
        <time>2000-01-01T02:43:26.000Z</time>
      </trkpt>
      <trkpt lat="46.51" lon="5.63959">
        <ele>430</ele>
        <time>2000-01-01T02:43:36.000Z</time>
      </trkpt>
      <trkpt lat="46.50984" lon="5.6397">
        <ele>437.5</ele>
        <time>2000-01-01T02:43:46.000Z</time>
      </trkpt>
      <trkpt lat="46.50969" lon="5.63975">
        <ele>432</ele>
        <time>2000-01-01T02:43:56.000Z</time>
      </trkpt>
      <trkpt lat="46.50954" lon="5.63984">
        <ele>438.6</ele>
        <time>2000-01-01T02:44:06.000Z</time>
      </trkpt>
      <trkpt lat="46.50943" lon="5.63995">
        <ele>434</ele>
        <time>2000-01-01T02:44:16.000Z</time>
      </trkpt>
      <trkpt lat="46.50933" lon="5.64007">
        <ele>440.9</ele>
        <time>2000-01-01T02:44:26.000Z</time>
      </trkpt>
      <trkpt lat="46.50925" lon="5.64013">
        <ele>436</ele>
        <time>2000-01-01T02:44:36.000Z</time>
      </trkpt>
      <trkpt lat="46.50919" lon="5.64023">
        <ele>442.5</ele>
        <time>2000-01-01T02:44:46.000Z</time>
      </trkpt>
      <trkpt lat="46.50915" lon="5.64033">
        <ele>443.6</ele>
        <time>2000-01-01T02:44:56.000Z</time>
      </trkpt>
      <trkpt lat="46.50907" lon="5.64041">
        <ele>440</ele>
        <time>2000-01-01T02:45:06.000Z</time>
      </trkpt>
      <trkpt lat="46.50902" lon="5.6405">
        <ele>445.6</ele>
        <time>2000-01-01T02:45:16.000Z</time>
      </trkpt>
      <trkpt lat="46.50895" lon="5.6406">
        <ele>446.9</ele>
        <time>2000-01-01T02:45:26.000Z</time>
      </trkpt>
      <trkpt lat="46.50892" lon="5.64066">
        <ele>443</ele>
        <time>2000-01-01T02:45:36.000Z</time>
      </trkpt>
      <trkpt lat="46.50885" lon="5.64073">
        <ele>448.8</ele>
        <time>2000-01-01T02:45:46.000Z</time>
      </trkpt>
      <trkpt lat="46.50876" lon="5.64088">
        <ele>446</ele>
        <time>2000-01-01T02:45:56.000Z</time>
      </trkpt>
      <trkpt lat="46.50854" lon="5.64104">
        <ele>450</ele>
        <time>2000-01-01T02:46:06.000Z</time>
      </trkpt>
      <trkpt lat="46.50844" lon="5.64117">
        <ele>456</ele>
        <time>2000-01-01T02:46:16.000Z</time>
      </trkpt>
      <trkpt lat="46.50823" lon="5.64133">
        <ele>454</ele>
        <time>2000-01-01T02:46:26.000Z</time>
      </trkpt>
      <trkpt lat="46.50811" lon="5.64141">
        <ele>460</ele>
        <time>2000-01-01T02:46:36.000Z</time>
      </trkpt>
      <trkpt lat="46.508" lon="5.64141">
        <ele>456</ele>
        <time>2000-01-01T02:46:46.000Z</time>
      </trkpt>
      <trkpt lat="46.50788" lon="5.64145">
        <ele>460.9</ele>
        <time>2000-01-01T02:46:56.000Z</time>
      </trkpt>
      <trkpt lat="46.50775" lon="5.64145">
        <ele>457</ele>
        <time>2000-01-01T02:47:06.000Z</time>
      </trkpt>
      <trkpt lat="46.50762" lon="5.64154">
        <ele>462.8</ele>
        <time>2000-01-01T02:47:16.000Z</time>
      </trkpt>
      <trkpt lat="46.50754" lon="5.64166">
        <ele>460</ele>
        <time>2000-01-01T02:47:26.000Z</time>
      </trkpt>
      <trkpt lat="46.50749" lon="5.64176">
        <ele>466.1</ele>
        <time>2000-01-01T02:47:36.000Z</time>
      </trkpt>
      <trkpt lat="46.50737" lon="5.6419">
        <ele>464</ele>
        <time>2000-01-01T02:47:46.000Z</time>
      </trkpt>
      <trkpt lat="46.50717" lon="5.64205">
        <ele>465</ele>
        <time>2000-01-01T02:47:56.000Z</time>
      </trkpt>
      <trkpt lat="46.5071" lon="5.64216">
        <ele>471.1</ele>
        <time>2000-01-01T02:48:06.000Z</time>
      </trkpt>
      <trkpt lat="46.50699" lon="5.64228">
        <ele>467</ele>
        <time>2000-01-01T02:48:16.000Z</time>
      </trkpt>
      <trkpt lat="46.50664" lon="5.64253">
        <ele>473</ele>
        <time>2000-01-01T02:48:26.000Z</time>
      </trkpt>
      <trkpt lat="46.50641" lon="5.64257">
        <ele>473</ele>
        <time>2000-01-01T02:48:36.000Z</time>
      </trkpt>
      <trkpt lat="46.50629" lon="5.64262">
        <ele>479.4</ele>
        <time>2000-01-01T02:48:46.000Z</time>
      </trkpt>
      <trkpt lat="46.50618" lon="5.64271">
        <ele>475</ele>
        <time>2000-01-01T02:48:56.000Z</time>
      </trkpt>
      <trkpt lat="46.50587" lon="5.64288">
        <ele>477</ele>
        <time>2000-01-01T02:49:06.000Z</time>
      </trkpt>
      <trkpt lat="46.50556" lon="5.64299">
        <ele>480</ele>
        <time>2000-01-01T02:49:16.000Z</time>
      </trkpt>
      <trkpt lat="46.50542" lon="5.64307">
        <ele>487.6</ele>
        <time>2000-01-01T02:49:26.000Z</time>
      </trkpt>
      <trkpt lat="46.50516" lon="5.64313">
        <ele>484</ele>
        <time>2000-01-01T02:49:36.000Z</time>
      </trkpt>
      <trkpt lat="46.505" lon="5.64322">
        <ele>491</ele>
        <time>2000-01-01T02:49:46.000Z</time>
      </trkpt>
      <trkpt lat="46.50483" lon="5.64329">
        <ele>487</ele>
        <time>2000-01-01T02:49:56.000Z</time>
      </trkpt>
      <trkpt lat="46.50451" lon="5.64367">
        <ele>492</ele>
        <time>2000-01-01T02:50:06.000Z</time>
      </trkpt>
      <trkpt lat="46.50441" lon="5.6438">
        <ele>500.1</ele>
        <time>2000-01-01T02:50:16.000Z</time>
      </trkpt>
      <trkpt lat="46.50429" lon="5.64388">
        <ele>496</ele>
        <time>2000-01-01T02:50:26.000Z</time>
      </trkpt>
      <trkpt lat="46.50421" lon="5.644">
        <ele>503.4</ele>
        <time>2000-01-01T02:50:36.000Z</time>
      </trkpt>
      <trkpt lat="46.5041" lon="5.64405">
        <ele>500</ele>
        <time>2000-01-01T02:50:46.000Z</time>
      </trkpt>
      <trkpt lat="46.50398" lon="5.64413">
        <ele>505.9</ele>
        <time>2000-01-01T02:50:56.000Z</time>
      </trkpt>
      <trkpt lat="46.5039" lon="5.64419">
        <ele>502</ele>
        <time>2000-01-01T02:51:06.000Z</time>
      </trkpt>
      <trkpt lat="46.50381" lon="5.64426">
        <ele>508.3</ele>
        <time>2000-01-01T02:51:16.000Z</time>
      </trkpt>
      <trkpt lat="46.50371" lon="5.64432">
        <ele>506</ele>
        <time>2000-01-01T02:51:26.000Z</time>
      </trkpt>
      <trkpt lat="46.50359" lon="5.64442">
        <ele>511.3</ele>
        <time>2000-01-01T02:51:36.000Z</time>
      </trkpt>
      <trkpt lat="46.50348" lon="5.64449">
        <ele>507</ele>
        <time>2000-01-01T02:51:46.000Z</time>
      </trkpt>
      <trkpt lat="46.50337" lon="5.64458">
        <ele>514.4</ele>
        <time>2000-01-01T02:51:56.000Z</time>
      </trkpt>
      <trkpt lat="46.5031" lon="5.64495">
        <ele>514</ele>
        <time>2000-01-01T02:52:06.000Z</time>
      </trkpt>
      <trkpt lat="46.50305" lon="5.64509">
        <ele>521.8</ele>
        <time>2000-01-01T02:52:16.000Z</time>
      </trkpt>
      <trkpt lat="46.503" lon="5.64538">
        <ele>522</ele>
        <time>2000-01-01T02:52:26.000Z</time>
      </trkpt>
      <trkpt lat="46.50302" lon="5.64549">
        <ele>528.3</ele>
        <time>2000-01-01T02:52:36.000Z</time>
      </trkpt>
      <trkpt lat="46.50303" lon="5.64564">
        <ele>530.7</ele>
        <time>2000-01-01T02:52:46.000Z</time>
      </trkpt>
      <trkpt lat="46.503" lon="5.64576">
        <ele>528</ele>
        <time>2000-01-01T02:52:56.000Z</time>
      </trkpt>
      <trkpt lat="46.50294" lon="5.64586">
        <ele>533.9</ele>
        <time>2000-01-01T02:53:06.000Z</time>
      </trkpt>
      <trkpt lat="46.50286" lon="5.64597">
        <ele>531</ele>
        <time>2000-01-01T02:53:16.000Z</time>
      </trkpt>
      <trkpt lat="46.50271" lon="5.64623">
        <ele>534</ele>
        <time>2000-01-01T02:53:26.000Z</time>
      </trkpt>
      <trkpt lat="46.50261" lon="5.64633">
        <ele>539.2</ele>
        <time>2000-01-01T02:53:36.000Z</time>
      </trkpt>
      <trkpt lat="46.50254" lon="5.64642">
        <ele>536</ele>
        <time>2000-01-01T02:53:46.000Z</time>
      </trkpt>
      <trkpt lat="46.50237" lon="5.64667">
        <ele>540</ele>
        <time>2000-01-01T02:53:56.000Z</time>
      </trkpt>
      <trkpt lat="46.50218" lon="5.64695">
        <ele>540</ele>
        <time>2000-01-01T02:54:06.000Z</time>
      </trkpt>
      <trkpt lat="46.50203" lon="5.64721">
        <ele>540</ele>
        <time>2000-01-01T02:54:16.000Z</time>
      </trkpt>
      <trkpt lat="46.50203" lon="5.6474">
        <ele>547.2</ele>
        <time>2000-01-01T02:54:26.000Z</time>
      </trkpt>
      <trkpt lat="46.50191" lon="5.64765">
        <ele>540</ele>
        <time>2000-01-01T02:54:36.000Z</time>
      </trkpt>
      <trkpt lat="46.5017" lon="5.64797">
        <ele>539</ele>
        <time>2000-01-01T02:54:46.000Z</time>
      </trkpt>
      <trkpt lat="46.50152" lon="5.64829">
        <ele>539</ele>
        <time>2000-01-01T02:54:56.000Z</time>
      </trkpt>
      <trkpt lat="46.50126" lon="5.64852">
        <ele>536</ele>
        <time>2000-01-01T02:55:06.000Z</time>
      </trkpt>
      <trkpt lat="46.50107" lon="5.64882">
        <ele>533</ele>
        <time>2000-01-01T02:55:16.000Z</time>
      </trkpt>
      <trkpt lat="46.50081" lon="5.64891">
        <ele>531</ele>
        <time>2000-01-01T02:55:26.000Z</time>
      </trkpt>
      <trkpt lat="46.50055" lon="5.64897">
        <ele>531</ele>
        <time>2000-01-01T02:55:36.000Z</time>
      </trkpt>
      <trkpt lat="46.50021" lon="5.64906">
        <ele>528</ele>
        <time>2000-01-01T02:55:46.000Z</time>
      </trkpt>
      <trkpt lat="46.49991" lon="5.64914">
        <ele>523</ele>
        <time>2000-01-01T02:55:56.000Z</time>
      </trkpt>
      <trkpt lat="46.49961" lon="5.64925">
        <ele>522</ele>
        <time>2000-01-01T02:56:06.000Z</time>
      </trkpt>
      <trkpt lat="46.49951" lon="5.64952">
        <ele>518</ele>
        <time>2000-01-01T02:56:16.000Z</time>
      </trkpt>
      <trkpt lat="46.49978" lon="5.64969">
        <ele>517</ele>
        <time>2000-01-01T02:56:26.000Z</time>
      </trkpt>
      <trkpt lat="46.50007" lon="5.64975">
        <ele>515</ele>
        <time>2000-01-01T02:56:36.000Z</time>
      </trkpt>
      <trkpt lat="46.50039" lon="5.64969">
        <ele>514</ele>
        <time>2000-01-01T02:56:46.000Z</time>
      </trkpt>
      <trkpt lat="46.50075" lon="5.64966">
        <ele>510</ele>
        <time>2000-01-01T02:56:56.000Z</time>
      </trkpt>
      <trkpt lat="46.50104" lon="5.64968">
        <ele>509</ele>
        <time>2000-01-01T02:57:06.000Z</time>
      </trkpt>
      <trkpt lat="46.50124" lon="5.64967">
        <ele>503</ele>
        <time>2000-01-01T02:57:16.000Z</time>
      </trkpt>
      <trkpt lat="46.50146" lon="5.64961">
        <ele>497</ele>
        <time>2000-01-01T02:57:26.000Z</time>
      </trkpt>
      <trkpt lat="46.50171" lon="5.6496">
        <ele>492</ele>
        <time>2000-01-01T02:57:36.000Z</time>
      </trkpt>
      <trkpt lat="46.50203" lon="5.64959">
        <ele>491</ele>
        <time>2000-01-01T02:57:46.000Z</time>
      </trkpt>
      <trkpt lat="46.50238" lon="5.64962">
        <ele>481</ele>
        <time>2000-01-01T02:57:56.000Z</time>
      </trkpt>
      <trkpt lat="46.5026" lon="5.64956">
        <ele>478</ele>
        <time>2000-01-01T02:58:06.000Z</time>
      </trkpt>
      <trkpt lat="46.5028" lon="5.64938">
        <ele>471</ele>
        <time>2000-01-01T02:58:16.000Z</time>
      </trkpt>
      <trkpt lat="46.50304" lon="5.64919">
        <ele>468</ele>
        <time>2000-01-01T02:58:26.000Z</time>
      </trkpt>
      <trkpt lat="46.50333" lon="5.64903">
        <ele>465</ele>
        <time>2000-01-01T02:58:36.000Z</time>
      </trkpt>
      <trkpt lat="46.50371" lon="5.64891">
        <ele>460</ele>
        <time>2000-01-01T02:58:46.000Z</time>
      </trkpt>
      <trkpt lat="46.50404" lon="5.64893">
        <ele>456</ele>
        <time>2000-01-01T02:58:56.000Z</time>
      </trkpt>
      <trkpt lat="46.50445" lon="5.64883">
        <ele>454</ele>
        <time>2000-01-01T02:59:06.000Z</time>
      </trkpt>
      <trkpt lat="46.50474" lon="5.64861">
        <ele>454</ele>
        <time>2000-01-01T02:59:16.000Z</time>
      </trkpt>
      <trkpt lat="46.50489" lon="5.64848">
        <ele>465.7</ele>
        <time>2000-01-01T02:59:26.000Z</time>
      </trkpt>
      <trkpt lat="46.50511" lon="5.64834">
        <ele>455</ele>
        <time>2000-01-01T02:59:36.000Z</time>
      </trkpt>
      <trkpt lat="46.50542" lon="5.64809">
        <ele>455</ele>
        <time>2000-01-01T02:59:46.000Z</time>
      </trkpt>
      <trkpt lat="46.50569" lon="5.64792">
        <ele>455</ele>
        <time>2000-01-01T02:59:56.000Z</time>
      </trkpt>
      <trkpt lat="46.50593" lon="5.64775">
        <ele>454</ele>
        <time>2000-01-01T03:00:06.000Z</time>
      </trkpt>
      <trkpt lat="46.50615" lon="5.64757">
        <ele>454</ele>
        <time>2000-01-01T03:00:16.000Z</time>
      </trkpt>
      <trkpt lat="46.50634" lon="5.64732">
        <ele>453</ele>
        <time>2000-01-01T03:00:26.000Z</time>
      </trkpt>
      <trkpt lat="46.50656" lon="5.64702">
        <ele>453</ele>
        <time>2000-01-01T03:00:36.000Z</time>
      </trkpt>
      <trkpt lat="46.50673" lon="5.64687">
        <ele>451</ele>
        <time>2000-01-01T03:00:46.000Z</time>
      </trkpt>
      <trkpt lat="46.50696" lon="5.6466">
        <ele>451</ele>
        <time>2000-01-01T03:00:56.000Z</time>
      </trkpt>
      <trkpt lat="46.5072" lon="5.64635">
        <ele>450</ele>
        <time>2000-01-01T03:01:06.000Z</time>
      </trkpt>
      <trkpt lat="46.50743" lon="5.64617">
        <ele>450</ele>
        <time>2000-01-01T03:01:16.000Z</time>
      </trkpt>
      <trkpt lat="46.50765" lon="5.64605">
        <ele>450</ele>
        <time>2000-01-01T03:01:26.000Z</time>
      </trkpt>
      <trkpt lat="46.50791" lon="5.64592">
        <ele>448</ele>
        <time>2000-01-01T03:01:36.000Z</time>
      </trkpt>
      <trkpt lat="46.50823" lon="5.64577">
        <ele>448</ele>
        <time>2000-01-01T03:01:46.000Z</time>
      </trkpt>
      <trkpt lat="46.5085" lon="5.6456">
        <ele>447</ele>
        <time>2000-01-01T03:01:56.000Z</time>
      </trkpt>
      <trkpt lat="46.5087" lon="5.6454">
        <ele>447</ele>
        <time>2000-01-01T03:02:06.000Z</time>
      </trkpt>
      <trkpt lat="46.50889" lon="5.64513">
        <ele>448</ele>
        <time>2000-01-01T03:02:16.000Z</time>
      </trkpt>
      <trkpt lat="46.50912" lon="5.64497">
        <ele>449</ele>
        <time>2000-01-01T03:02:26.000Z</time>
      </trkpt>
      <trkpt lat="46.50935" lon="5.64472">
        <ele>449</ele>
        <time>2000-01-01T03:02:36.000Z</time>
      </trkpt>
      <trkpt lat="46.50951" lon="5.64444">
        <ele>448</ele>
        <time>2000-01-01T03:02:46.000Z</time>
      </trkpt>
      <trkpt lat="46.50963" lon="5.64431">
        <ele>461.6</ele>
        <time>2000-01-01T03:02:56.000Z</time>
      </trkpt>
      <trkpt lat="46.50985" lon="5.64411">
        <ele>447</ele>
        <time>2000-01-01T03:03:06.000Z</time>
      </trkpt>
      <trkpt lat="46.5101" lon="5.64398">
        <ele>444</ele>
        <time>2000-01-01T03:03:16.000Z</time>
      </trkpt>
      <trkpt lat="46.51036" lon="5.64387">
        <ele>443</ele>
        <time>2000-01-01T03:03:26.000Z</time>
      </trkpt>
      <trkpt lat="46.51068" lon="5.64351">
        <ele>443</ele>
        <time>2000-01-01T03:03:36.000Z</time>
      </trkpt>
      <trkpt lat="46.51078" lon="5.64337">
        <ele>454.3</ele>
        <time>2000-01-01T03:03:46.000Z</time>
      </trkpt>
      <trkpt lat="46.51091" lon="5.64335">
        <ele>439</ele>
        <time>2000-01-01T03:03:56.000Z</time>
      </trkpt>
      <trkpt lat="46.51101" lon="5.64325">
        <ele>452.3</ele>
        <time>2000-01-01T03:04:06.000Z</time>
      </trkpt>
      <trkpt lat="46.51112" lon="5.64313">
        <ele>439</ele>
        <time>2000-01-01T03:04:16.000Z</time>
      </trkpt>
      <trkpt lat="46.51128" lon="5.64305">
        <ele>450.1</ele>
        <time>2000-01-01T03:04:26.000Z</time>
      </trkpt>
      <trkpt lat="46.51125" lon="5.64299">
        <ele>440</ele>
        <time>2000-01-01T03:04:36.000Z</time>
      </trkpt>
      <trkpt lat="46.51126" lon="5.64291">
        <ele>451.4</ele>
        <time>2000-01-01T03:04:46.000Z</time>
      </trkpt>
      <trkpt lat="46.51127" lon="5.6429">
        <ele>451.4</ele>
        <time>2000-01-01T03:04:56.000Z</time>
      </trkpt>
      <trkpt lat="46.51128" lon="5.64285">
        <ele>451.6</ele>
        <time>2000-01-01T03:05:06.000Z</time>
      </trkpt>
      <trkpt lat="46.51129" lon="5.64279">
        <ele>451.9</ele>
        <time>2000-01-01T03:05:16.000Z</time>
      </trkpt>
      <trkpt lat="46.51132" lon="5.64273">
        <ele>444</ele>
        <time>2000-01-01T03:05:26.000Z</time>
      </trkpt>
      <trkpt lat="46.5114" lon="5.64263">
        <ele>451.6</ele>
        <time>2000-01-01T03:05:36.000Z</time>
      </trkpt>
      <trkpt lat="46.51153" lon="5.64251">
        <ele>444</ele>
        <time>2000-01-01T03:05:46.000Z</time>
      </trkpt>
      <trkpt lat="46.51162" lon="5.6424">
        <ele>449.7</ele>
        <time>2000-01-01T03:05:56.000Z</time>
      </trkpt>
      <trkpt lat="46.51171" lon="5.64232">
        <ele>446</ele>
        <time>2000-01-01T03:06:06.000Z</time>
      </trkpt>
      <trkpt lat="46.51182" lon="5.6422">
        <ele>447.8</ele>
        <time>2000-01-01T03:06:16.000Z</time>
      </trkpt>
      <trkpt lat="46.51189" lon="5.64212">
        <ele>446</ele>
        <time>2000-01-01T03:06:26.000Z</time>
      </trkpt>
      <trkpt lat="46.51192" lon="5.64207">
        <ele>446.8</ele>
        <time>2000-01-01T03:06:36.000Z</time>
      </trkpt>
      <trkpt lat="46.51193" lon="5.64205">
        <ele>446.7</ele>
        <time>2000-01-01T03:06:46.000Z</time>
      </trkpt>
      <trkpt lat="46.51197" lon="5.64205">
        <ele>446.2</ele>
        <time>2000-01-01T03:06:56.000Z</time>
      </trkpt>
      <trkpt lat="46.51203" lon="5.64203">
        <ele>445.6</ele>
        <time>2000-01-01T03:07:06.000Z</time>
      </trkpt>
      <trkpt lat="46.51209" lon="5.64195">
        <ele>446</ele>
        <time>2000-01-01T03:07:16.000Z</time>
      </trkpt>
      <trkpt lat="46.51217" lon="5.64192">
        <ele>444</ele>
        <time>2000-01-01T03:07:26.000Z</time>
      </trkpt>
      <trkpt lat="46.51231" lon="5.6418">
        <ele>440</ele>
        <time>2000-01-01T03:07:36.000Z</time>
      </trkpt>
      <trkpt lat="46.51241" lon="5.64173">
        <ele>441.1</ele>
        <time>2000-01-01T03:07:46.000Z</time>
      </trkpt>
      <trkpt lat="46.51253" lon="5.64159">
        <ele>439</ele>
        <time>2000-01-01T03:07:56.000Z</time>
      </trkpt>
      <trkpt lat="46.51262" lon="5.64151">
        <ele>440.6</ele>
        <time>2000-01-01T03:08:06.000Z</time>
      </trkpt>
      <trkpt lat="46.51284" lon="5.64155">
        <ele>439</ele>
        <time>2000-01-01T03:08:16.000Z</time>
      </trkpt>
      <trkpt lat="46.51309" lon="5.64152">
        <ele>439</ele>
        <time>2000-01-01T03:08:26.000Z</time>
      </trkpt>
      <trkpt lat="46.51329" lon="5.64154">
        <ele>441</ele>
        <time>2000-01-01T03:08:36.000Z</time>
      </trkpt>
      <trkpt lat="46.51346" lon="5.64162">
        <ele>443.6</ele>
        <time>2000-01-01T03:08:46.000Z</time>
      </trkpt>
      <trkpt lat="46.51364" lon="5.64174">
        <ele>443</ele>
        <time>2000-01-01T03:08:56.000Z</time>
      </trkpt>
      <trkpt lat="46.51403" lon="5.64196">
        <ele>446</ele>
        <time>2000-01-01T03:09:06.000Z</time>
      </trkpt>
      <trkpt lat="46.5142" lon="5.64206">
        <ele>447.8</ele>
        <time>2000-01-01T03:09:16.000Z</time>
      </trkpt>
      <trkpt lat="46.51437" lon="5.64206">
        <ele>448</ele>
        <time>2000-01-01T03:09:26.000Z</time>
      </trkpt>
      <trkpt lat="46.51454" lon="5.64198">
        <ele>451.5</ele>
        <time>2000-01-01T03:09:36.000Z</time>
      </trkpt>
      <trkpt lat="46.51468" lon="5.64179">
        <ele>449</ele>
        <time>2000-01-01T03:09:46.000Z</time>
      </trkpt>
      <trkpt lat="46.51484" lon="5.64155">
        <ele>451</ele>
        <time>2000-01-01T03:09:56.000Z</time>
      </trkpt>
      <trkpt lat="46.515" lon="5.64136">
        <ele>451</ele>
        <time>2000-01-01T03:10:06.000Z</time>
      </trkpt>
      <trkpt lat="46.51516" lon="5.6412">
        <ele>452</ele>
        <time>2000-01-01T03:10:16.000Z</time>
      </trkpt>
      <trkpt lat="46.51541" lon="5.64104">
        <ele>453</ele>
        <time>2000-01-01T03:10:26.000Z</time>
      </trkpt>
      <trkpt lat="46.51567" lon="5.64093">
        <ele>453</ele>
        <time>2000-01-01T03:10:36.000Z</time>
      </trkpt>
      <trkpt lat="46.51592" lon="5.64084">
        <ele>454</ele>
        <time>2000-01-01T03:10:46.000Z</time>
      </trkpt>
      <trkpt lat="46.51616" lon="5.64073">
        <ele>454</ele>
        <time>2000-01-01T03:10:56.000Z</time>
      </trkpt>
      <trkpt lat="46.51635" lon="5.64058">
        <ele>455</ele>
        <time>2000-01-01T03:11:06.000Z</time>
      </trkpt>
      <trkpt lat="46.51646" lon="5.64032">
        <ele>456</ele>
        <time>2000-01-01T03:11:16.000Z</time>
      </trkpt>
      <trkpt lat="46.51652" lon="5.64001">
        <ele>457</ele>
        <time>2000-01-01T03:11:26.000Z</time>
      </trkpt>
      <trkpt lat="46.51652" lon="5.63958">
        <ele>457</ele>
        <time>2000-01-01T03:11:36.000Z</time>
      </trkpt>
      <trkpt lat="46.51652" lon="5.63931">
        <ele>459.6</ele>
        <time>2000-01-01T03:11:46.000Z</time>
      </trkpt>
      <trkpt lat="46.51653" lon="5.63909">
        <ele>457</ele>
        <time>2000-01-01T03:11:56.000Z</time>
      </trkpt>
      <trkpt lat="46.51678" lon="5.63907">
        <ele>458</ele>
        <time>2000-01-01T03:12:06.000Z</time>
      </trkpt>
      <trkpt lat="46.51695" lon="5.63916">
        <ele>462.4</ele>
        <time>2000-01-01T03:12:16.000Z</time>
      </trkpt>
      <trkpt lat="46.51719" lon="5.63921">
        <ele>463</ele>
        <time>2000-01-01T03:12:26.000Z</time>
      </trkpt>
      <trkpt lat="46.51738" lon="5.63922">
        <ele>466.2</ele>
        <time>2000-01-01T03:12:36.000Z</time>
      </trkpt>
      <trkpt lat="46.51748" lon="5.63928">
        <ele>466</ele>
        <time>2000-01-01T03:12:46.000Z</time>
      </trkpt>
      <trkpt lat="46.51744" lon="5.63949">
        <ele>468</ele>
        <time>2000-01-01T03:12:56.000Z</time>
      </trkpt>
      <trkpt lat="46.51741" lon="5.64">
        <ele>469</ele>
        <time>2000-01-01T03:13:06.000Z</time>
      </trkpt>
      <trkpt lat="46.51742" lon="5.64019">
        <ele>469.9</ele>
        <time>2000-01-01T03:13:16.000Z</time>
      </trkpt>
      <trkpt lat="46.51744" lon="5.64028">
        <ele>469</ele>
        <time>2000-01-01T03:13:26.000Z</time>
      </trkpt>
      <trkpt lat="46.51749" lon="5.64039">
        <ele>470.4</ele>
        <time>2000-01-01T03:13:36.000Z</time>
      </trkpt>
      <trkpt lat="46.51756" lon="5.64058">
        <ele>469</ele>
        <time>2000-01-01T03:13:46.000Z</time>
      </trkpt>
      <trkpt lat="46.51765" lon="5.64073">
        <ele>471.8</ele>
        <time>2000-01-01T03:13:56.000Z</time>
      </trkpt>
      <trkpt lat="46.51779" lon="5.64089">
        <ele>471</ele>
        <time>2000-01-01T03:14:06.000Z</time>
      </trkpt>
      <trkpt lat="46.51791" lon="5.64099">
        <ele>474.8</ele>
        <time>2000-01-01T03:14:16.000Z</time>
      </trkpt>
      <trkpt lat="46.51803" lon="5.64103">
        <ele>476</ele>
        <time>2000-01-01T03:14:26.000Z</time>
      </trkpt>
      <trkpt lat="46.51815" lon="5.64106">
        <ele>477.6</ele>
        <time>2000-01-01T03:14:36.000Z</time>
      </trkpt>
      <trkpt lat="46.51826" lon="5.64099">
        <ele>480</ele>
        <time>2000-01-01T03:14:46.000Z</time>
      </trkpt>
      <trkpt lat="46.51838" lon="5.64096">
        <ele>480.2</ele>
        <time>2000-01-01T03:14:56.000Z</time>
      </trkpt>
      <trkpt lat="46.51849" lon="5.64108">
        <ele>483</ele>
        <time>2000-01-01T03:15:06.000Z</time>
      </trkpt>
      <trkpt lat="46.5186" lon="5.6412">
        <ele>481.9</ele>
        <time>2000-01-01T03:15:16.000Z</time>
      </trkpt>
      <trkpt lat="46.51874" lon="5.64131">
        <ele>485</ele>
        <time>2000-01-01T03:15:26.000Z</time>
      </trkpt>
      <trkpt lat="46.51888" lon="5.64139">
        <ele>484.4</ele>
        <time>2000-01-01T03:15:36.000Z</time>
      </trkpt>
      <trkpt lat="46.51901" lon="5.6415">
        <ele>487</ele>
        <time>2000-01-01T03:15:46.000Z</time>
      </trkpt>
      <trkpt lat="46.51911" lon="5.64157">
        <ele>486.5</ele>
        <time>2000-01-01T03:15:56.000Z</time>
      </trkpt>
      <trkpt lat="46.51929" lon="5.64169">
        <ele>488</ele>
        <time>2000-01-01T03:16:06.000Z</time>
      </trkpt>
      <trkpt lat="46.5195" lon="5.64177">
        <ele>488</ele>
        <time>2000-01-01T03:16:16.000Z</time>
      </trkpt>
      <trkpt lat="46.51968" lon="5.64179">
        <ele>490.1</ele>
        <time>2000-01-01T03:16:26.000Z</time>
      </trkpt>
      <trkpt lat="46.51984" lon="5.64176">
        <ele>488</ele>
        <time>2000-01-01T03:16:36.000Z</time>
      </trkpt>
      <trkpt lat="46.51995" lon="5.64176">
        <ele>492.1</ele>
        <time>2000-01-01T03:16:46.000Z</time>
      </trkpt>
      <trkpt lat="46.52011" lon="5.64171">
        <ele>489</ele>
        <time>2000-01-01T03:16:56.000Z</time>
      </trkpt>
      <trkpt lat="46.52029" lon="5.64165">
        <ele>493.4</ele>
        <time>2000-01-01T03:17:06.000Z</time>
      </trkpt>
      <trkpt lat="46.52045" lon="5.64157">
        <ele>491</ele>
        <time>2000-01-01T03:17:16.000Z</time>
      </trkpt>
      <trkpt lat="46.5206" lon="5.64152">
        <ele>494.3</ele>
        <time>2000-01-01T03:17:26.000Z</time>
      </trkpt>
      <trkpt lat="46.52076" lon="5.64142">
        <ele>491</ele>
        <time>2000-01-01T03:17:36.000Z</time>
      </trkpt>
      <trkpt lat="46.52092" lon="5.6414">
        <ele>495.6</ele>
        <time>2000-01-01T03:17:46.000Z</time>
      </trkpt>
      <trkpt lat="46.52118" lon="5.64136">
        <ele>491</ele>
        <time>2000-01-01T03:17:56.000Z</time>
      </trkpt>
      <trkpt lat="46.52146" lon="5.64139">
        <ele>490</ele>
        <time>2000-01-01T03:18:06.000Z</time>
      </trkpt>
      <trkpt lat="46.52171" lon="5.64139">
        <ele>490</ele>
        <time>2000-01-01T03:18:16.000Z</time>
      </trkpt>
      <trkpt lat="46.52191" lon="5.64133">
        <ele>490</ele>
        <time>2000-01-01T03:18:26.000Z</time>
      </trkpt>
      <trkpt lat="46.52215" lon="5.6412">
        <ele>491</ele>
        <time>2000-01-01T03:18:36.000Z</time>
      </trkpt>
      <trkpt lat="46.52238" lon="5.64112">
        <ele>491</ele>
        <time>2000-01-01T03:18:46.000Z</time>
      </trkpt>
      <trkpt lat="46.5226" lon="5.64103">
        <ele>492</ele>
        <time>2000-01-01T03:18:56.000Z</time>
      </trkpt>
      <trkpt lat="46.52275" lon="5.64096">
        <ele>500.9</ele>
        <time>2000-01-01T03:19:06.000Z</time>
      </trkpt>
      <trkpt lat="46.52286" lon="5.64092">
        <ele>494</ele>
        <time>2000-01-01T03:19:16.000Z</time>
      </trkpt>
      <trkpt lat="46.5229" lon="5.64093">
        <ele>501.1</ele>
        <time>2000-01-01T03:19:26.000Z</time>
      </trkpt>
      <trkpt lat="46.52293" lon="5.64094">
        <ele>501.2</ele>
        <time>2000-01-01T03:19:36.000Z</time>
      </trkpt>
      <trkpt lat="46.52299" lon="5.64078">
        <ele>498</ele>
        <time>2000-01-01T03:19:46.000Z</time>
      </trkpt>
      <trkpt lat="46.5231" lon="5.6407">
        <ele>503.6</ele>
        <time>2000-01-01T03:19:56.000Z</time>
      </trkpt>
      <trkpt lat="46.52318" lon="5.6406">
        <ele>499</ele>
        <time>2000-01-01T03:20:06.000Z</time>
      </trkpt>
      <trkpt lat="46.52327" lon="5.64043">
        <ele>509.7</ele>
        <time>2000-01-01T03:20:16.000Z</time>
      </trkpt>
      <trkpt lat="46.52332" lon="5.64036">
        <ele>500</ele>
        <time>2000-01-01T03:20:26.000Z</time>
      </trkpt>
      <trkpt lat="46.52338" lon="5.64028">
        <ele>512.6</ele>
        <time>2000-01-01T03:20:36.000Z</time>
      </trkpt>
      <trkpt lat="46.52347" lon="5.64018">
        <ele>506</ele>
        <time>2000-01-01T03:20:46.000Z</time>
      </trkpt>
      <trkpt lat="46.52359" lon="5.64008">
        <ele>514.5</ele>
        <time>2000-01-01T03:20:56.000Z</time>
      </trkpt>
      <trkpt lat="46.52372" lon="5.63997">
        <ele>507</ele>
        <time>2000-01-01T03:21:06.000Z</time>
      </trkpt>
      <trkpt lat="46.52381" lon="5.63983">
        <ele>517.6</ele>
        <time>2000-01-01T03:21:16.000Z</time>
      </trkpt>
      <trkpt lat="46.52391" lon="5.63972">
        <ele>510</ele>
        <time>2000-01-01T03:21:26.000Z</time>
      </trkpt>
      <trkpt lat="46.52405" lon="5.63961">
        <ele>520.6</ele>
        <time>2000-01-01T03:21:36.000Z</time>
      </trkpt>
      <trkpt lat="46.52421" lon="5.63956">
        <ele>511</ele>
        <time>2000-01-01T03:21:46.000Z</time>
      </trkpt>
      <trkpt lat="46.52433" lon="5.63949">
        <ele>522.3</ele>
        <time>2000-01-01T03:21:56.000Z</time>
      </trkpt>
      <trkpt lat="46.52451" lon="5.63934">
        <ele>514</ele>
        <time>2000-01-01T03:22:06.000Z</time>
      </trkpt>
      <trkpt lat="46.52474" lon="5.63926">
        <ele>519</ele>
        <time>2000-01-01T03:22:16.000Z</time>
      </trkpt>
      <trkpt lat="46.52483" lon="5.63923">
        <ele>527.2</ele>
        <time>2000-01-01T03:22:26.000Z</time>
      </trkpt>
      <trkpt lat="46.52502" lon="5.63911">
        <ele>521</ele>
        <time>2000-01-01T03:22:36.000Z</time>
      </trkpt>
      <trkpt lat="46.52511" lon="5.63907">
        <ele>530.6</ele>
        <time>2000-01-01T03:22:46.000Z</time>
      </trkpt>
      <trkpt lat="46.52519" lon="5.63901">
        <ele>532.1</ele>
        <time>2000-01-01T03:22:56.000Z</time>
      </trkpt>
      <trkpt lat="46.5253" lon="5.63895">
        <ele>532</ele>
        <time>2000-01-01T03:23:06.000Z</time>
      </trkpt>
      <trkpt lat="46.5254" lon="5.63892">
        <ele>534.2</ele>
        <time>2000-01-01T03:23:16.000Z</time>
      </trkpt>
      <trkpt lat="46.52551" lon="5.63884">
        <ele>538</ele>
        <time>2000-01-01T03:23:26.000Z</time>
      </trkpt>
      <trkpt lat="46.52568" lon="5.63876">
        <ele>538</ele>
        <time>2000-01-01T03:23:36.000Z</time>
      </trkpt>
      <trkpt lat="46.52582" lon="5.63879">
        <ele>536.4</ele>
        <time>2000-01-01T03:23:46.000Z</time>
      </trkpt>
      <trkpt lat="46.52596" lon="5.63888">
        <ele>536</ele>
        <time>2000-01-01T03:23:56.000Z</time>
      </trkpt>
      <trkpt lat="46.52602" lon="5.6389">
        <ele>535</ele>
        <time>2000-01-01T03:24:06.000Z</time>
      </trkpt>
      <trkpt lat="46.52607" lon="5.63889">
        <ele>535.2</ele>
        <time>2000-01-01T03:24:16.000Z</time>
      </trkpt>
      <trkpt lat="46.52613" lon="5.63885">
        <ele>535.8</ele>
        <time>2000-01-01T03:24:26.000Z</time>
      </trkpt>
      <trkpt lat="46.52614" lon="5.63884">
        <ele>540</ele>
        <time>2000-01-01T03:24:36.000Z</time>
      </trkpt>
      <trkpt lat="46.52616" lon="5.63884">
        <ele>536</ele>
        <time>2000-01-01T03:24:46.000Z</time>
      </trkpt>
      <trkpt lat="46.52619" lon="5.63878">
        <ele>537</ele>
        <time>2000-01-01T03:24:56.000Z</time>
      </trkpt>
      <trkpt lat="46.5262" lon="5.63874">
        <ele>537.6</ele>
        <time>2000-01-01T03:25:06.000Z</time>
      </trkpt>
      <trkpt lat="46.5262" lon="5.63872">
        <ele>537.9</ele>
        <time>2000-01-01T03:25:16.000Z</time>
      </trkpt>
      <trkpt lat="46.5262" lon="5.63861">
        <ele>545</ele>
        <time>2000-01-01T03:25:26.000Z</time>
      </trkpt>
      <trkpt lat="46.52621" lon="5.63857">
        <ele>540.2</ele>
        <time>2000-01-01T03:25:36.000Z</time>
      </trkpt>
      <trkpt lat="46.52624" lon="5.63855">
        <ele>540.6</ele>
        <time>2000-01-01T03:25:46.000Z</time>
      </trkpt>
      <trkpt lat="46.52629" lon="5.63856">
        <ele>540.5</ele>
        <time>2000-01-01T03:25:56.000Z</time>
      </trkpt>
      <trkpt lat="46.52631" lon="5.63851">
        <ele>541.4</ele>
        <time>2000-01-01T03:26:06.000Z</time>
      </trkpt>
      <trkpt lat="46.52641" lon="5.63845">
        <ele>550</ele>
        <time>2000-01-01T03:26:16.000Z</time>
      </trkpt>
      <trkpt lat="46.52656" lon="5.63834">
        <ele>544.6</ele>
        <time>2000-01-01T03:26:26.000Z</time>
      </trkpt>
      <trkpt lat="46.52659" lon="5.63833">
        <ele>550</ele>
        <time>2000-01-01T03:26:36.000Z</time>
      </trkpt>
      <trkpt lat="46.52667" lon="5.63833">
        <ele>545</ele>
        <time>2000-01-01T03:26:46.000Z</time>
      </trkpt>
      <trkpt lat="46.52668" lon="5.63834">
        <ele>545.1</ele>
        <time>2000-01-01T03:26:56.000Z</time>
      </trkpt>
      <trkpt lat="46.5267" lon="5.63833">
        <ele>545.6</ele>
        <time>2000-01-01T03:27:06.000Z</time>
      </trkpt>
      <trkpt lat="46.52675" lon="5.63827">
        <ele>546</ele>
        <time>2000-01-01T03:27:16.000Z</time>
      </trkpt>
      <trkpt lat="46.52685" lon="5.63821">
        <ele>560</ele>
        <time>2000-01-01T03:27:26.000Z</time>
      </trkpt>
      <trkpt lat="46.52713" lon="5.63816">
        <ele>566</ele>
        <time>2000-01-01T03:27:36.000Z</time>
      </trkpt>
      <trkpt lat="46.5272" lon="5.63814">
        <ele>554.5</ele>
        <time>2000-01-01T03:27:46.000Z</time>
      </trkpt>
      <trkpt lat="46.52724" lon="5.63804">
        <ele>555.3</ele>
        <time>2000-01-01T03:27:56.000Z</time>
      </trkpt>
      <trkpt lat="46.52734" lon="5.63799">
        <ele>570</ele>
        <time>2000-01-01T03:28:06.000Z</time>
      </trkpt>
      <trkpt lat="46.5274" lon="5.63793">
        <ele>559.1</ele>
        <time>2000-01-01T03:28:16.000Z</time>
      </trkpt>
      <trkpt lat="46.52742" lon="5.63793">
        <ele>559.5</ele>
        <time>2000-01-01T03:28:26.000Z</time>
      </trkpt>
      <trkpt lat="46.52746" lon="5.6379">
        <ele>560.6</ele>
        <time>2000-01-01T03:28:36.000Z</time>
      </trkpt>
      <trkpt lat="46.52747" lon="5.63787">
        <ele>560.9</ele>
        <time>2000-01-01T03:28:46.000Z</time>
      </trkpt>
      <trkpt lat="46.52751" lon="5.63785">
        <ele>578</ele>
        <time>2000-01-01T03:28:56.000Z</time>
      </trkpt>
      <trkpt lat="46.52753" lon="5.63782">
        <ele>562.6</ele>
        <time>2000-01-01T03:29:06.000Z</time>
      </trkpt>
      <trkpt lat="46.52758" lon="5.63779">
        <ele>563.9</ele>
        <time>2000-01-01T03:29:16.000Z</time>
      </trkpt>
      <trkpt lat="46.52763" lon="5.63779">
        <ele>565.1</ele>
        <time>2000-01-01T03:29:26.000Z</time>
      </trkpt>
      <trkpt lat="46.52765" lon="5.63775">
        <ele>565.8</ele>
        <time>2000-01-01T03:29:36.000Z</time>
      </trkpt>
      <trkpt lat="46.52769" lon="5.63771">
        <ele>581</ele>
        <time>2000-01-01T03:29:46.000Z</time>
      </trkpt>
      <trkpt lat="46.5277" lon="5.63768">
        <ele>567.4</ele>
        <time>2000-01-01T03:29:56.000Z</time>
      </trkpt>
      <trkpt lat="46.52781" lon="5.63765">
        <ele>570.4</ele>
        <time>2000-01-01T03:30:06.000Z</time>
      </trkpt>
      <trkpt lat="46.52785" lon="5.63762">
        <ele>571.7</ele>
        <time>2000-01-01T03:30:16.000Z</time>
      </trkpt>
      <trkpt lat="46.52794" lon="5.6376">
        <ele>588</ele>
        <time>2000-01-01T03:30:26.000Z</time>
      </trkpt>
      <trkpt lat="46.52805" lon="5.63756">
        <ele>577.5</ele>
        <time>2000-01-01T03:30:36.000Z</time>
      </trkpt>
      <trkpt lat="46.52812" lon="5.63752">
        <ele>579.9</ele>
        <time>2000-01-01T03:30:46.000Z</time>
      </trkpt>
      <trkpt lat="46.52814" lon="5.63752">
        <ele>591</ele>
        <time>2000-01-01T03:30:56.000Z</time>
      </trkpt>
      <trkpt lat="46.52823" lon="5.63749">
        <ele>582.9</ele>
        <time>2000-01-01T03:31:06.000Z</time>
      </trkpt>
      <trkpt lat="46.52843" lon="5.63744">
        <ele>596</ele>
        <time>2000-01-01T03:31:16.000Z</time>
      </trkpt>
      <trkpt lat="46.52855" lon="5.63742">
        <ele>589.5</ele>
        <time>2000-01-01T03:31:26.000Z</time>
      </trkpt>
      <trkpt lat="46.52866" lon="5.63742">
        <ele>598</ele>
        <time>2000-01-01T03:31:36.000Z</time>
      </trkpt>
      <trkpt lat="46.52878" lon="5.63746">
        <ele>595.9</ele>
        <time>2000-01-01T03:31:46.000Z</time>
      </trkpt>
      <trkpt lat="46.52885" lon="5.63747">
        <ele>600</ele>
        <time>2000-01-01T03:31:56.000Z</time>
      </trkpt>
      <trkpt lat="46.5289" lon="5.63739">
        <ele>597.2</ele>
        <time>2000-01-01T03:32:06.000Z</time>
      </trkpt>
      <trkpt lat="46.52899" lon="5.63744">
        <ele>600.4</ele>
        <time>2000-01-01T03:32:16.000Z</time>
      </trkpt>
      <trkpt lat="46.5291" lon="5.63748">
        <ele>605</ele>
        <time>2000-01-01T03:32:26.000Z</time>
      </trkpt>
      <trkpt lat="46.52922" lon="5.63749">
        <ele>606.5</ele>
        <time>2000-01-01T03:32:36.000Z</time>
      </trkpt>
      <trkpt lat="46.52934" lon="5.63752">
        <ele>608</ele>
        <time>2000-01-01T03:32:46.000Z</time>
      </trkpt>
      <trkpt lat="46.52949" lon="5.63756">
        <ele>610.2</ele>
        <time>2000-01-01T03:32:56.000Z</time>
      </trkpt>
      <trkpt lat="46.52961" lon="5.63755">
        <ele>610</ele>
        <time>2000-01-01T03:33:06.000Z</time>
      </trkpt>
      <trkpt lat="46.52981" lon="5.63762">
        <ele>611</ele>
        <time>2000-01-01T03:33:16.000Z</time>
      </trkpt>
      <trkpt lat="46.52992" lon="5.63757">
        <ele>616.5</ele>
        <time>2000-01-01T03:33:26.000Z</time>
      </trkpt>
      <trkpt lat="46.53005" lon="5.63755">
        <ele>612</ele>
        <time>2000-01-01T03:33:36.000Z</time>
      </trkpt>
      <trkpt lat="46.53027" lon="5.63757">
        <ele>614</ele>
        <time>2000-01-01T03:33:46.000Z</time>
      </trkpt>
      <trkpt lat="46.53043" lon="5.63753">
        <ele>621.5</ele>
        <time>2000-01-01T03:33:56.000Z</time>
      </trkpt>
      <trkpt lat="46.53057" lon="5.63735">
        <ele>613</ele>
        <time>2000-01-01T03:34:06.000Z</time>
      </trkpt>
      <trkpt lat="46.53081" lon="5.6371">
        <ele>613</ele>
        <time>2000-01-01T03:34:16.000Z</time>
      </trkpt>
      <trkpt lat="46.531" lon="5.63696">
        <ele>612</ele>
        <time>2000-01-01T03:34:26.000Z</time>
      </trkpt>
      <trkpt lat="46.53112" lon="5.63677">
        <ele>612.3</ele>
        <time>2000-01-01T03:34:36.000Z</time>
      </trkpt>
      <trkpt lat="46.53118" lon="5.63652">
        <ele>600</ele>
        <time>2000-01-01T03:34:46.000Z</time>
      </trkpt>
      <trkpt lat="46.5313" lon="5.6364">
        <ele>601.1</ele>
        <time>2000-01-01T03:34:56.000Z</time>
      </trkpt>
      <trkpt lat="46.53136" lon="5.63637">
        <ele>595</ele>
        <time>2000-01-01T03:35:06.000Z</time>
      </trkpt>
      <trkpt lat="46.53141" lon="5.63634">
        <ele>598.7</ele>
        <time>2000-01-01T03:35:16.000Z</time>
      </trkpt>
      <trkpt lat="46.53155" lon="5.63614">
        <ele>581</ele>
        <time>2000-01-01T03:35:26.000Z</time>
      </trkpt>
      <trkpt lat="46.53164" lon="5.63597">
        <ele>583.6</ele>
        <time>2000-01-01T03:35:36.000Z</time>
      </trkpt>
      <trkpt lat="46.53184" lon="5.63566">
        <ele>563</ele>
        <time>2000-01-01T03:35:46.000Z</time>
      </trkpt>
      <trkpt lat="46.53196" lon="5.63511">
        <ele>562</ele>
        <time>2000-01-01T03:35:56.000Z</time>
      </trkpt>
      <trkpt lat="46.53236" lon="5.63497">
        <ele>561</ele>
        <time>2000-01-01T03:36:06.000Z</time>
      </trkpt>
      <trkpt lat="46.53259" lon="5.63441">
        <ele>556</ele>
        <time>2000-01-01T03:36:16.000Z</time>
      </trkpt>
      <trkpt lat="46.53262" lon="5.6339">
        <ele>555</ele>
        <time>2000-01-01T03:36:26.000Z</time>
      </trkpt>
      <trkpt lat="46.53267" lon="5.63349">
        <ele>554</ele>
        <time>2000-01-01T03:36:36.000Z</time>
      </trkpt>
      <trkpt lat="46.53267" lon="5.6334">
        <ele>553.4</ele>
        <time>2000-01-01T03:36:46.000Z</time>
      </trkpt>
      <trkpt lat="46.53266" lon="5.63306">
        <ele>554</ele>
        <time>2000-01-01T03:36:56.000Z</time>
      </trkpt>
      <trkpt lat="46.53266" lon="5.63271">
        <ele>553</ele>
        <time>2000-01-01T03:37:06.000Z</time>
      </trkpt>
      <trkpt lat="46.53266" lon="5.63236">
        <ele>552</ele>
        <time>2000-01-01T03:37:16.000Z</time>
      </trkpt>
      <trkpt lat="46.53262" lon="5.63194">
        <ele>549</ele>
        <time>2000-01-01T03:37:26.000Z</time>
      </trkpt>
      <trkpt lat="46.53268" lon="5.63141">
        <ele>545</ele>
        <time>2000-01-01T03:37:36.000Z</time>
      </trkpt>
      <trkpt lat="46.53289" lon="5.63091">
        <ele>540</ele>
        <time>2000-01-01T03:37:46.000Z</time>
      </trkpt>
      <trkpt lat="46.53275" lon="5.63066">
        <ele>537</ele>
        <time>2000-01-01T03:37:56.000Z</time>
      </trkpt>
      <trkpt lat="46.53243" lon="5.6306">
        <ele>536</ele>
        <time>2000-01-01T03:38:06.000Z</time>
      </trkpt>
      <trkpt lat="46.53208" lon="5.63059">
        <ele>536</ele>
        <time>2000-01-01T03:38:16.000Z</time>
      </trkpt>
      <trkpt lat="46.53177" lon="5.63052">
        <ele>536</ele>
        <time>2000-01-01T03:38:26.000Z</time>
      </trkpt>
      <trkpt lat="46.53145" lon="5.63038">
        <ele>533</ele>
        <time>2000-01-01T03:38:36.000Z</time>
      </trkpt>
      <trkpt lat="46.53115" lon="5.63034">
        <ele>533</ele>
        <time>2000-01-01T03:38:46.000Z</time>
      </trkpt>
      <trkpt lat="46.53093" lon="5.63046">
        <ele>532</ele>
        <time>2000-01-01T03:38:56.000Z</time>
      </trkpt>
      <trkpt lat="46.53055" lon="5.63063">
        <ele>531</ele>
        <time>2000-01-01T03:39:06.000Z</time>
      </trkpt>
      <trkpt lat="46.5304" lon="5.63007">
        <ele>531</ele>
        <time>2000-01-01T03:39:16.000Z</time>
      </trkpt>
      <trkpt lat="46.53015" lon="5.6298">
        <ele>528</ele>
        <time>2000-01-01T03:39:26.000Z</time>
      </trkpt>
      <trkpt lat="46.5299" lon="5.62943">
        <ele>526</ele>
        <time>2000-01-01T03:39:36.000Z</time>
      </trkpt>
      <trkpt lat="46.52969" lon="5.62895">
        <ele>525</ele>
        <time>2000-01-01T03:39:46.000Z</time>
      </trkpt>
      <trkpt lat="46.52953" lon="5.62851">
        <ele>525</ele>
        <time>2000-01-01T03:39:56.000Z</time>
      </trkpt>
      <trkpt lat="46.52946" lon="5.62821">
        <ele>526</ele>
        <time>2000-01-01T03:40:06.000Z</time>
      </trkpt>
      <trkpt lat="46.52933" lon="5.62791">
        <ele>525</ele>
        <time>2000-01-01T03:40:16.000Z</time>
      </trkpt>
      <trkpt lat="46.52923" lon="5.62754">
        <ele>525</ele>
        <time>2000-01-01T03:40:26.000Z</time>
      </trkpt>
      <trkpt lat="46.52922" lon="5.62747">
        <ele>528.3</ele>
        <time>2000-01-01T03:40:36.000Z</time>
      </trkpt>
      <trkpt lat="46.52923" lon="5.62738">
        <ele>528.2</ele>
        <time>2000-01-01T03:40:46.000Z</time>
      </trkpt>
      <trkpt lat="46.52959" lon="5.62732">
        <ele>531</ele>
        <time>2000-01-01T03:40:56.000Z</time>
      </trkpt>
      <trkpt lat="46.5297" lon="5.62725">
        <ele>531.4</ele>
        <time>2000-01-01T03:41:06.000Z</time>
      </trkpt>
      <trkpt lat="46.52983" lon="5.62713">
        <ele>535</ele>
        <time>2000-01-01T03:41:16.000Z</time>
      </trkpt>
      <trkpt lat="46.52997" lon="5.62704">
        <ele>533.2</ele>
        <time>2000-01-01T03:41:26.000Z</time>
      </trkpt>
      <trkpt lat="46.53009" lon="5.627">
        <ele>538</ele>
        <time>2000-01-01T03:41:36.000Z</time>
      </trkpt>
      <trkpt lat="46.5302" lon="5.62697">
        <ele>535.4</ele>
        <time>2000-01-01T03:41:46.000Z</time>
      </trkpt>
      <trkpt lat="46.53033" lon="5.62698">
        <ele>541</ele>
        <time>2000-01-01T03:41:56.000Z</time>
      </trkpt>
      <trkpt lat="46.53046" lon="5.62698">
        <ele>538.1</ele>
        <time>2000-01-01T03:42:06.000Z</time>
      </trkpt>
      <trkpt lat="46.5307" lon="5.62692">
        <ele>545</ele>
        <time>2000-01-01T03:42:16.000Z</time>
      </trkpt>
      <trkpt lat="46.53085" lon="5.62689">
        <ele>542.2</ele>
        <time>2000-01-01T03:42:26.000Z</time>
      </trkpt>
      <trkpt lat="46.53108" lon="5.62691">
        <ele>549</ele>
        <time>2000-01-01T03:42:36.000Z</time>
      </trkpt>
      <trkpt lat="46.53128" lon="5.6269">
        <ele>552</ele>
        <time>2000-01-01T03:42:46.000Z</time>
      </trkpt>
      <trkpt lat="46.53137" lon="5.62688">
        <ele>549.2</ele>
        <time>2000-01-01T03:42:56.000Z</time>
      </trkpt>
      <trkpt lat="46.53149" lon="5.62688">
        <ele>555</ele>
        <time>2000-01-01T03:43:06.000Z</time>
      </trkpt>
      <trkpt lat="46.53162" lon="5.62682">
        <ele>552.8</ele>
        <time>2000-01-01T03:43:16.000Z</time>
      </trkpt>
      <trkpt lat="46.53173" lon="5.62679">
        <ele>558</ele>
        <time>2000-01-01T03:43:26.000Z</time>
      </trkpt>
      <trkpt lat="46.53186" lon="5.62678">
        <ele>555.4</ele>
        <time>2000-01-01T03:43:36.000Z</time>
      </trkpt>
      <trkpt lat="46.532" lon="5.62679">
        <ele>561</ele>
        <time>2000-01-01T03:43:46.000Z</time>
      </trkpt>
      <trkpt lat="46.53211" lon="5.62673">
        <ele>557.9</ele>
        <time>2000-01-01T03:43:56.000Z</time>
      </trkpt>
      <trkpt lat="46.53236" lon="5.62657">
        <ele>562</ele>
        <time>2000-01-01T03:44:06.000Z</time>
      </trkpt>
      <trkpt lat="46.53253" lon="5.62656">
        <ele>561.5</ele>
        <time>2000-01-01T03:44:16.000Z</time>
      </trkpt>
      <trkpt lat="46.53268" lon="5.62654">
        <ele>565</ele>
        <time>2000-01-01T03:44:26.000Z</time>
      </trkpt>
      <trkpt lat="46.53286" lon="5.62644">
        <ele>566</ele>
        <time>2000-01-01T03:44:36.000Z</time>
      </trkpt>
      <trkpt lat="46.53294" lon="5.62635">
        <ele>563.9</ele>
        <time>2000-01-01T03:44:46.000Z</time>
      </trkpt>
      <trkpt lat="46.53301" lon="5.62632">
        <ele>564.4</ele>
        <time>2000-01-01T03:44:56.000Z</time>
      </trkpt>
      <trkpt lat="46.53315" lon="5.62628">
        <ele>569</ele>
        <time>2000-01-01T03:45:06.000Z</time>
      </trkpt>
      <trkpt lat="46.53325" lon="5.62628">
        <ele>566.4</ele>
        <time>2000-01-01T03:45:16.000Z</time>
      </trkpt>
      <trkpt lat="46.53344" lon="5.62623">
        <ele>571</ele>
        <time>2000-01-01T03:45:26.000Z</time>
      </trkpt>
      <trkpt lat="46.53349" lon="5.62619">
        <ele>567.8</ele>
        <time>2000-01-01T03:45:36.000Z</time>
      </trkpt>
      <trkpt lat="46.53358" lon="5.62617">
        <ele>568.3</ele>
        <time>2000-01-01T03:45:46.000Z</time>
      </trkpt>
      <trkpt lat="46.53371" lon="5.62616">
        <ele>573</ele>
        <time>2000-01-01T03:45:56.000Z</time>
      </trkpt>
      <trkpt lat="46.53385" lon="5.62618">
        <ele>570.4</ele>
        <time>2000-01-01T03:46:06.000Z</time>
      </trkpt>
      <trkpt lat="46.53397" lon="5.62615">
        <ele>573</ele>
        <time>2000-01-01T03:46:16.000Z</time>
      </trkpt>
      <trkpt lat="46.53409" lon="5.62605">
        <ele>571.9</ele>
        <time>2000-01-01T03:46:26.000Z</time>
      </trkpt>
      <trkpt lat="46.53422" lon="5.62598">
        <ele>574</ele>
        <time>2000-01-01T03:46:36.000Z</time>
      </trkpt>
      <trkpt lat="46.53446" lon="5.62595">
        <ele>576</ele>
        <time>2000-01-01T03:46:46.000Z</time>
      </trkpt>
      <trkpt lat="46.53472" lon="5.62592">
        <ele>578</ele>
        <time>2000-01-01T03:46:56.000Z</time>
      </trkpt>
      <trkpt lat="46.53489" lon="5.62595">
        <ele>579.5</ele>
        <time>2000-01-01T03:47:06.000Z</time>
      </trkpt>
      <trkpt lat="46.53502" lon="5.62597">
        <ele>579</ele>
        <time>2000-01-01T03:47:16.000Z</time>
      </trkpt>
      <trkpt lat="46.53527" lon="5.62591">
        <ele>580</ele>
        <time>2000-01-01T03:47:26.000Z</time>
      </trkpt>
      <trkpt lat="46.53564" lon="5.626">
        <ele>582</ele>
        <time>2000-01-01T03:47:36.000Z</time>
      </trkpt>
      <trkpt lat="46.53566" lon="5.62586">
        <ele>588.7</ele>
        <time>2000-01-01T03:47:46.000Z</time>
      </trkpt>
      <trkpt lat="46.53573" lon="5.62568">
        <ele>584</ele>
        <time>2000-01-01T03:47:56.000Z</time>
      </trkpt>
      <trkpt lat="46.53584" lon="5.62531">
        <ele>584</ele>
        <time>2000-01-01T03:48:06.000Z</time>
      </trkpt>
      <trkpt lat="46.53588" lon="5.62516">
        <ele>594.7</ele>
        <time>2000-01-01T03:48:16.000Z</time>
      </trkpt>
      <trkpt lat="46.5359" lon="5.62502">
        <ele>586</ele>
        <time>2000-01-01T03:48:26.000Z</time>
      </trkpt>
      <trkpt lat="46.5359" lon="5.62486">
        <ele>597.7</ele>
        <time>2000-01-01T03:48:36.000Z</time>
      </trkpt>
      <trkpt lat="46.53586" lon="5.62434">
        <ele>589</ele>
        <time>2000-01-01T03:48:46.000Z</time>
      </trkpt>
      <trkpt lat="46.5358" lon="5.62397">
        <ele>598</ele>
        <time>2000-01-01T03:48:56.000Z</time>
      </trkpt>
      <trkpt lat="46.5357" lon="5.62365">
        <ele>602</ele>
        <time>2000-01-01T03:49:06.000Z</time>
      </trkpt>
      <trkpt lat="46.53563" lon="5.6235">
        <ele>611.8</ele>
        <time>2000-01-01T03:49:16.000Z</time>
      </trkpt>
      <trkpt lat="46.53561" lon="5.62335">
        <ele>607</ele>
        <time>2000-01-01T03:49:26.000Z</time>
      </trkpt>
      <trkpt lat="46.53558" lon="5.62321">
        <ele>615.4</ele>
        <time>2000-01-01T03:49:36.000Z</time>
      </trkpt>
      <trkpt lat="46.53554" lon="5.62315">
        <ele>615.3</ele>
        <time>2000-01-01T03:49:46.000Z</time>
      </trkpt>
      <trkpt lat="46.53557" lon="5.62307">
        <ele>611</ele>
        <time>2000-01-01T03:49:56.000Z</time>
      </trkpt>
      <trkpt lat="46.53561" lon="5.62295">
        <ele>620.3</ele>
        <time>2000-01-01T03:50:06.000Z</time>
      </trkpt>
      <trkpt lat="46.53561" lon="5.62278">
        <ele>616</ele>
        <time>2000-01-01T03:50:16.000Z</time>
      </trkpt>
      <trkpt lat="46.53562" lon="5.62263">
        <ele>625.4</ele>
        <time>2000-01-01T03:50:26.000Z</time>
      </trkpt>
      <trkpt lat="46.53566" lon="5.62231">
        <ele>620</ele>
        <time>2000-01-01T03:50:36.000Z</time>
      </trkpt>
      <trkpt lat="46.53569" lon="5.6222">
        <ele>627.8</ele>
        <time>2000-01-01T03:50:46.000Z</time>
      </trkpt>
      <trkpt lat="46.53578" lon="5.62209">
        <ele>622</ele>
        <time>2000-01-01T03:50:56.000Z</time>
      </trkpt>
      <trkpt lat="46.5358" lon="5.62205">
        <ele>628.2</ele>
        <time>2000-01-01T03:51:06.000Z</time>
      </trkpt>
      <trkpt lat="46.53582" lon="5.62202">
        <ele>628.2</ele>
        <time>2000-01-01T03:51:16.000Z</time>
      </trkpt>
      <trkpt lat="46.53585" lon="5.62201">
        <ele>628.4</ele>
        <time>2000-01-01T03:51:26.000Z</time>
      </trkpt>
      <trkpt lat="46.53586" lon="5.62206">
        <ele>628.7</ele>
        <time>2000-01-01T03:51:36.000Z</time>
      </trkpt>
      <trkpt lat="46.53591" lon="5.62214">
        <ele>623</ele>
        <time>2000-01-01T03:51:46.000Z</time>
      </trkpt>
      <trkpt lat="46.536" lon="5.62231">
        <ele>631.3</ele>
        <time>2000-01-01T03:51:56.000Z</time>
      </trkpt>
      <trkpt lat="46.53609" lon="5.62244">
        <ele>624</ele>
        <time>2000-01-01T03:52:06.000Z</time>
      </trkpt>
      <trkpt lat="46.53619" lon="5.62256">
        <ele>633.8</ele>
        <time>2000-01-01T03:52:16.000Z</time>
      </trkpt>
      <trkpt lat="46.53626" lon="5.62249">
        <ele>627</ele>
        <time>2000-01-01T03:52:26.000Z</time>
      </trkpt>
      <trkpt lat="46.53629" lon="5.62242">
        <ele>635.2</ele>
        <time>2000-01-01T03:52:36.000Z</time>
      </trkpt>
      <trkpt lat="46.53632" lon="5.62231">
        <ele>635.2</ele>
        <time>2000-01-01T03:52:46.000Z</time>
      </trkpt>
      <trkpt lat="46.53633" lon="5.62221">
        <ele>629</ele>
        <time>2000-01-01T03:52:56.000Z</time>
      </trkpt>
      <trkpt lat="46.53639" lon="5.62199">
        <ele>634.8</ele>
        <time>2000-01-01T03:53:06.000Z</time>
      </trkpt>
      <trkpt lat="46.53639" lon="5.62196">
        <ele>634.7</ele>
        <time>2000-01-01T03:53:16.000Z</time>
      </trkpt>
      <trkpt lat="46.53643" lon="5.62194">
        <ele>636</ele>
        <time>2000-01-01T03:53:26.000Z</time>
      </trkpt>
      <trkpt lat="46.53645" lon="5.62195">
        <ele>635.4</ele>
        <time>2000-01-01T03:53:36.000Z</time>
      </trkpt>
      <trkpt lat="46.53648" lon="5.62193">
        <ele>635.7</ele>
        <time>2000-01-01T03:53:46.000Z</time>
      </trkpt>
      <trkpt lat="46.53655" lon="5.62198">
        <ele>636.7</ele>
        <time>2000-01-01T03:53:56.000Z</time>
      </trkpt>
      <trkpt lat="46.53656" lon="5.62206">
        <ele>639</ele>
        <time>2000-01-01T03:54:06.000Z</time>
      </trkpt>
      <trkpt lat="46.5366" lon="5.62216">
        <ele>638</ele>
        <time>2000-01-01T03:54:16.000Z</time>
      </trkpt>
      <trkpt lat="46.53677" lon="5.62231">
        <ele>641</ele>
        <time>2000-01-01T03:54:26.000Z</time>
      </trkpt>
      <trkpt lat="46.53689" lon="5.62235">
        <ele>638.8</ele>
        <time>2000-01-01T03:54:36.000Z</time>
      </trkpt>
      <trkpt lat="46.53692" lon="5.62239">
        <ele>638.9</ele>
        <time>2000-01-01T03:54:46.000Z</time>
      </trkpt>
      <trkpt lat="46.53695" lon="5.62246">
        <ele>639</ele>
        <time>2000-01-01T03:54:56.000Z</time>
      </trkpt>
      <trkpt lat="46.53705" lon="5.62254">
        <ele>638.9</ele>
        <time>2000-01-01T03:55:06.000Z</time>
      </trkpt>
      <trkpt lat="46.53706" lon="5.6226">
        <ele>638.6</ele>
        <time>2000-01-01T03:55:16.000Z</time>
      </trkpt>
      <trkpt lat="46.5373" lon="5.62281">
        <ele>637</ele>
        <time>2000-01-01T03:55:26.000Z</time>
      </trkpt>
      <trkpt lat="46.53742" lon="5.62294">
        <ele>636.5</ele>
        <time>2000-01-01T03:55:36.000Z</time>
      </trkpt>
      <trkpt lat="46.5375" lon="5.62298">
        <ele>636</ele>
        <time>2000-01-01T03:55:46.000Z</time>
      </trkpt>
      <trkpt lat="46.53754" lon="5.62298">
        <ele>636.3</ele>
        <time>2000-01-01T03:55:56.000Z</time>
      </trkpt>
      <trkpt lat="46.53764" lon="5.6229">
        <ele>636.6</ele>
        <time>2000-01-01T03:56:06.000Z</time>
      </trkpt>
      <trkpt lat="46.53778" lon="5.62287">
        <ele>636</ele>
        <time>2000-01-01T03:56:16.000Z</time>
      </trkpt>
      <trkpt lat="46.53797" lon="5.6229">
        <ele>636</ele>
        <time>2000-01-01T03:56:26.000Z</time>
      </trkpt>
      <trkpt lat="46.53804" lon="5.62266">
        <ele>637.4</ele>
        <time>2000-01-01T03:56:36.000Z</time>
      </trkpt>
      <trkpt lat="46.53797" lon="5.62239">
        <ele>631</ele>
        <time>2000-01-01T03:56:46.000Z</time>
      </trkpt>
      <trkpt lat="46.53786" lon="5.62223">
        <ele>635.5</ele>
        <time>2000-01-01T03:56:56.000Z</time>
      </trkpt>
      <trkpt lat="46.53783" lon="5.62178">
        <ele>623</ele>
        <time>2000-01-01T03:57:06.000Z</time>
      </trkpt>
      <trkpt lat="46.53789" lon="5.62165">
        <ele>630</ele>
        <time>2000-01-01T03:57:16.000Z</time>
      </trkpt>
      <trkpt lat="46.53786" lon="5.62142">
        <ele>619</ele>
        <time>2000-01-01T03:57:26.000Z</time>
      </trkpt>
      <trkpt lat="46.53782" lon="5.62119">
        <ele>625.5</ele>
        <time>2000-01-01T03:57:36.000Z</time>
      </trkpt>
      <trkpt lat="46.53782" lon="5.62102">
        <ele>615</ele>
        <time>2000-01-01T03:57:46.000Z</time>
      </trkpt>
      <trkpt lat="46.53785" lon="5.62078">
        <ele>620.6</ele>
        <time>2000-01-01T03:57:56.000Z</time>
      </trkpt>
      <trkpt lat="46.5378" lon="5.62044">
        <ele>610</ele>
        <time>2000-01-01T03:58:06.000Z</time>
      </trkpt>
      <trkpt lat="46.53778" lon="5.62033">
        <ele>616.3</ele>
        <time>2000-01-01T03:58:16.000Z</time>
      </trkpt>
      <trkpt lat="46.5379" lon="5.62013">
        <ele>607</ele>
        <time>2000-01-01T03:58:26.000Z</time>
      </trkpt>
      <trkpt lat="46.53798" lon="5.61985">
        <ele>602</ele>
        <time>2000-01-01T03:58:36.000Z</time>
      </trkpt>
      <trkpt lat="46.53803" lon="5.61961">
        <ele>606.3</ele>
        <time>2000-01-01T03:58:46.000Z</time>
      </trkpt>
      <trkpt lat="46.5381" lon="5.61944">
        <ele>596</ele>
        <time>2000-01-01T03:58:56.000Z</time>
      </trkpt>
      <trkpt lat="46.53823" lon="5.6193">
        <ele>601.3</ele>
        <time>2000-01-01T03:59:06.000Z</time>
      </trkpt>
      <trkpt lat="46.53831" lon="5.6191">
        <ele>592</ele>
        <time>2000-01-01T03:59:16.000Z</time>
      </trkpt>
      <trkpt lat="46.53828" lon="5.61889">
        <ele>596.7</ele>
        <time>2000-01-01T03:59:26.000Z</time>
      </trkpt>
      <trkpt lat="46.53828" lon="5.61879">
        <ele>588</ele>
        <time>2000-01-01T03:59:36.000Z</time>
      </trkpt>
      <trkpt lat="46.5383" lon="5.61865">
        <ele>594.3</ele>
        <time>2000-01-01T03:59:46.000Z</time>
      </trkpt>
      <trkpt lat="46.53831" lon="5.61853">
        <ele>593</ele>
        <time>2000-01-01T03:59:56.000Z</time>
      </trkpt>
      <trkpt lat="46.5383" lon="5.61841">
        <ele>586</ele>
        <time>2000-01-01T04:00:06.000Z</time>
      </trkpt>
      <trkpt lat="46.53828" lon="5.61829">
        <ele>590.8</ele>
        <time>2000-01-01T04:00:16.000Z</time>
      </trkpt>
      <trkpt lat="46.53825" lon="5.61819">
        <ele>589.7</ele>
        <time>2000-01-01T04:00:26.000Z</time>
      </trkpt>
      <trkpt lat="46.53826" lon="5.61808">
        <ele>584</ele>
        <time>2000-01-01T04:00:36.000Z</time>
      </trkpt>
      <trkpt lat="46.53833" lon="5.61791">
        <ele>585.9</ele>
        <time>2000-01-01T04:00:46.000Z</time>
      </trkpt>
      <trkpt lat="46.53836" lon="5.61773">
        <ele>581</ele>
        <time>2000-01-01T04:00:56.000Z</time>
      </trkpt>
      <trkpt lat="46.53832" lon="5.6176">
        <ele>582.2</ele>
        <time>2000-01-01T04:01:06.000Z</time>
      </trkpt>
      <trkpt lat="46.53835" lon="5.61729">
        <ele>573</ele>
        <time>2000-01-01T04:01:16.000Z</time>
      </trkpt>
      <trkpt lat="46.5383" lon="5.6171">
        <ele>575.2</ele>
        <time>2000-01-01T04:01:26.000Z</time>
      </trkpt>
      <trkpt lat="46.53829" lon="5.61694">
        <ele>570</ele>
        <time>2000-01-01T04:01:36.000Z</time>
      </trkpt>
      <trkpt lat="46.53832" lon="5.61671">
        <ele>569.6</ele>
        <time>2000-01-01T04:01:46.000Z</time>
      </trkpt>
      <trkpt lat="46.53829" lon="5.61645">
        <ele>567</ele>
        <time>2000-01-01T04:01:56.000Z</time>
      </trkpt>
      <trkpt lat="46.53831" lon="5.61629">
        <ele>563.6</ele>
        <time>2000-01-01T04:02:06.000Z</time>
      </trkpt>
      <trkpt lat="46.53832" lon="5.61618">
        <ele>562</ele>
        <time>2000-01-01T04:02:16.000Z</time>
      </trkpt>
      <trkpt lat="46.53838" lon="5.616">
        <ele>561</ele>
        <time>2000-01-01T04:02:26.000Z</time>
      </trkpt>
      <trkpt lat="46.53842" lon="5.61576">
        <ele>556.1</ele>
        <time>2000-01-01T04:02:36.000Z</time>
      </trkpt>
      <trkpt lat="46.53853" lon="5.61554">
        <ele>554</ele>
        <time>2000-01-01T04:02:46.000Z</time>
      </trkpt>
      <trkpt lat="46.53857" lon="5.61561">
        <ele>554.2</ele>
        <time>2000-01-01T04:02:56.000Z</time>
      </trkpt>
      <trkpt lat="46.53873" lon="5.61561">
        <ele>553</ele>
        <time>2000-01-01T04:03:06.000Z</time>
      </trkpt>
      <trkpt lat="46.53895" lon="5.61561">
        <ele>553</ele>
        <time>2000-01-01T04:03:16.000Z</time>
      </trkpt>
      <trkpt lat="46.53905" lon="5.61564">
        <ele>554.3</ele>
        <time>2000-01-01T04:03:26.000Z</time>
      </trkpt>
      <trkpt lat="46.53921" lon="5.61564">
        <ele>552</ele>
        <time>2000-01-01T04:03:36.000Z</time>
      </trkpt>
      <trkpt lat="46.53933" lon="5.61562">
        <ele>554</ele>
        <time>2000-01-01T04:03:46.000Z</time>
      </trkpt>
      <trkpt lat="46.53936" lon="5.61564">
        <ele>554.3</ele>
        <time>2000-01-01T04:03:56.000Z</time>
      </trkpt>
      <trkpt lat="46.53937" lon="5.61564">
        <ele>554.3</ele>
        <time>2000-01-01T04:04:06.000Z</time>
      </trkpt>
      <trkpt lat="46.53937" lon="5.61563">
        <ele>554.1</ele>
        <time>2000-01-01T04:04:16.000Z</time>
      </trkpt>
      <trkpt lat="46.5394" lon="5.61561">
        <ele>552</ele>
        <time>2000-01-01T04:04:26.000Z</time>
      </trkpt>
      <trkpt lat="46.53946" lon="5.61552">
        <ele>552.6</ele>
        <time>2000-01-01T04:04:36.000Z</time>
      </trkpt>
      <trkpt lat="46.53946" lon="5.61528">
        <ele>545</ele>
        <time>2000-01-01T04:04:46.000Z</time>
      </trkpt>
      <trkpt lat="46.5394" lon="5.6151">
        <ele>546.7</ele>
        <time>2000-01-01T04:04:56.000Z</time>
      </trkpt>
      <trkpt lat="46.53936" lon="5.61497">
        <ele>539</ele>
        <time>2000-01-01T04:05:06.000Z</time>
      </trkpt>
      <trkpt lat="46.53934" lon="5.61481">
        <ele>541.7</ele>
        <time>2000-01-01T04:05:16.000Z</time>
      </trkpt>
      <trkpt lat="46.53935" lon="5.61469">
        <ele>532</ele>
        <time>2000-01-01T04:05:26.000Z</time>
      </trkpt>
      <trkpt lat="46.53938" lon="5.61457">
        <ele>537.4</ele>
        <time>2000-01-01T04:05:36.000Z</time>
      </trkpt>
      <trkpt lat="46.53936" lon="5.61421">
        <ele>524</ele>
        <time>2000-01-01T04:05:46.000Z</time>
      </trkpt>
      <trkpt lat="46.53918" lon="5.61401">
        <ele>519</ele>
        <time>2000-01-01T04:05:56.000Z</time>
      </trkpt>
      <trkpt lat="46.53917" lon="5.61394">
        <ele>525.1</ele>
        <time>2000-01-01T04:06:06.000Z</time>
      </trkpt>
      <trkpt lat="46.53919" lon="5.61378">
        <ele>521.6</ele>
        <time>2000-01-01T04:06:16.000Z</time>
      </trkpt>
      <trkpt lat="46.53926" lon="5.6137">
        <ele>513</ele>
        <time>2000-01-01T04:06:26.000Z</time>
      </trkpt>
      <trkpt lat="46.53944" lon="5.61358">
        <ele>510</ele>
        <time>2000-01-01T04:06:36.000Z</time>
      </trkpt>
      <trkpt lat="46.53932" lon="5.61344">
        <ele>514.1</ele>
        <time>2000-01-01T04:06:46.000Z</time>
      </trkpt>
      <trkpt lat="46.53913" lon="5.6134">
        <ele>506</ele>
        <time>2000-01-01T04:06:56.000Z</time>
      </trkpt>
      <trkpt lat="46.53883" lon="5.61326">
        <ele>504</ele>
        <time>2000-01-01T04:07:06.000Z</time>
      </trkpt>
      <trkpt lat="46.53862" lon="5.61313">
        <ele>502</ele>
        <time>2000-01-01T04:07:16.000Z</time>
      </trkpt>
      <trkpt lat="46.53839" lon="5.61299">
        <ele>499</ele>
        <time>2000-01-01T04:07:26.000Z</time>
      </trkpt>
      <trkpt lat="46.5382" lon="5.61291">
        <ele>498</ele>
        <time>2000-01-01T04:07:36.000Z</time>
      </trkpt>
      <trkpt lat="46.538" lon="5.61285">
        <ele>496</ele>
        <time>2000-01-01T04:07:46.000Z</time>
      </trkpt>
      <trkpt lat="46.53779" lon="5.6127">
        <ele>495</ele>
        <time>2000-01-01T04:07:56.000Z</time>
      </trkpt>
      <trkpt lat="46.53757" lon="5.61249">
        <ele>494</ele>
        <time>2000-01-01T04:08:06.000Z</time>
      </trkpt>
      <trkpt lat="46.53741" lon="5.61228">
        <ele>494</ele>
        <time>2000-01-01T04:08:16.000Z</time>
      </trkpt>
      <trkpt lat="46.53721" lon="5.61213">
        <ele>494</ele>
        <time>2000-01-01T04:08:26.000Z</time>
      </trkpt>
      <trkpt lat="46.53686" lon="5.61181">
        <ele>494</ele>
        <time>2000-01-01T04:08:36.000Z</time>
      </trkpt>
      <trkpt lat="46.53667" lon="5.61169">
        <ele>494</ele>
        <time>2000-01-01T04:08:46.000Z</time>
      </trkpt>
      <trkpt lat="46.53644" lon="5.6115">
        <ele>495</ele>
        <time>2000-01-01T04:08:56.000Z</time>
      </trkpt>
      <trkpt lat="46.53613" lon="5.61125">
        <ele>495</ele>
        <time>2000-01-01T04:09:06.000Z</time>
      </trkpt>
      <trkpt lat="46.53595" lon="5.61111">
        <ele>494</ele>
        <time>2000-01-01T04:09:16.000Z</time>
      </trkpt>
      <trkpt lat="46.53579" lon="5.61093">
        <ele>494</ele>
        <time>2000-01-01T04:09:26.000Z</time>
      </trkpt>
      <trkpt lat="46.53558" lon="5.61086">
        <ele>494</ele>
        <time>2000-01-01T04:09:36.000Z</time>
      </trkpt>
      <trkpt lat="46.53536" lon="5.61074">
        <ele>494</ele>
        <time>2000-01-01T04:09:46.000Z</time>
      </trkpt>
      <trkpt lat="46.53512" lon="5.61057">
        <ele>494</ele>
        <time>2000-01-01T04:09:56.000Z</time>
      </trkpt>
      <trkpt lat="46.53479" lon="5.61021">
        <ele>494</ele>
        <time>2000-01-01T04:10:06.000Z</time>
      </trkpt>
      <trkpt lat="46.53463" lon="5.61001">
        <ele>494</ele>
        <time>2000-01-01T04:10:16.000Z</time>
      </trkpt>
      <trkpt lat="46.53447" lon="5.60983">
        <ele>494</ele>
        <time>2000-01-01T04:10:26.000Z</time>
      </trkpt>
      <trkpt lat="46.53431" lon="5.60966">
        <ele>495</ele>
        <time>2000-01-01T04:10:36.000Z</time>
      </trkpt>
      <trkpt lat="46.53412" lon="5.60949">
        <ele>495</ele>
        <time>2000-01-01T04:10:46.000Z</time>
      </trkpt>
      <trkpt lat="46.53396" lon="5.60937">
        <ele>499.9</ele>
        <time>2000-01-01T04:10:56.000Z</time>
      </trkpt>
      <trkpt lat="46.53379" lon="5.6093">
        <ele>496</ele>
        <time>2000-01-01T04:11:06.000Z</time>
      </trkpt>
      <trkpt lat="46.53363" lon="5.60925">
        <ele>500.6</ele>
        <time>2000-01-01T04:11:16.000Z</time>
      </trkpt>
      <trkpt lat="46.53347" lon="5.60917">
        <ele>497</ele>
        <time>2000-01-01T04:11:26.000Z</time>
      </trkpt>
      <trkpt lat="46.53332" lon="5.60915">
        <ele>501</ele>
        <time>2000-01-01T04:11:36.000Z</time>
      </trkpt>
      <trkpt lat="46.53281" lon="5.60893">
        <ele>497</ele>
        <time>2000-01-01T04:11:46.000Z</time>
      </trkpt>
      <trkpt lat="46.5326" lon="5.60883">
        <ele>497</ele>
        <time>2000-01-01T04:11:56.000Z</time>
      </trkpt>
      <trkpt lat="46.53241" lon="5.60876">
        <ele>497</ele>
        <time>2000-01-01T04:12:06.000Z</time>
      </trkpt>
      <trkpt lat="46.53222" lon="5.60871">
        <ele>497</ele>
        <time>2000-01-01T04:12:16.000Z</time>
      </trkpt>
      <trkpt lat="46.53202" lon="5.60867">
        <ele>497</ele>
        <time>2000-01-01T04:12:26.000Z</time>
      </trkpt>
      <trkpt lat="46.53184" lon="5.60861">
        <ele>501.6</ele>
        <time>2000-01-01T04:12:36.000Z</time>
      </trkpt>
      <trkpt lat="46.53163" lon="5.60858">
        <ele>497</ele>
        <time>2000-01-01T04:12:46.000Z</time>
      </trkpt>
      <trkpt lat="46.53143" lon="5.60859">
        <ele>497</ele>
        <time>2000-01-01T04:12:56.000Z</time>
      </trkpt>
      <trkpt lat="46.53119" lon="5.60858">
        <ele>497</ele>
        <time>2000-01-01T04:13:06.000Z</time>
      </trkpt>
      <trkpt lat="46.53097" lon="5.6086">
        <ele>499</ele>
        <time>2000-01-01T04:13:16.000Z</time>
      </trkpt>
      <trkpt lat="46.5307" lon="5.60862">
        <ele>499</ele>
        <time>2000-01-01T04:13:26.000Z</time>
      </trkpt>
      <trkpt lat="46.53029" lon="5.60864">
        <ele>499</ele>
        <time>2000-01-01T04:13:36.000Z</time>
      </trkpt>
      <trkpt lat="46.53051" lon="5.60875">
        <ele>502</ele>
        <time>2000-01-01T04:13:46.000Z</time>
      </trkpt>
      <trkpt lat="46.53071" lon="5.60881">
        <ele>504</ele>
        <time>2000-01-01T04:13:56.000Z</time>
      </trkpt>
      <trkpt lat="46.53107" lon="5.609">
        <ele>508</ele>
        <time>2000-01-01T04:14:06.000Z</time>
      </trkpt>
      <trkpt lat="46.53124" lon="5.60906">
        <ele>511</ele>
        <time>2000-01-01T04:14:16.000Z</time>
      </trkpt>
      <trkpt lat="46.53158" lon="5.6093">
        <ele>513</ele>
        <time>2000-01-01T04:14:26.000Z</time>
      </trkpt>
      <trkpt lat="46.53177" lon="5.60941">
        <ele>517</ele>
        <time>2000-01-01T04:14:36.000Z</time>
      </trkpt>
      <trkpt lat="46.53195" lon="5.6095">
        <ele>518</ele>
        <time>2000-01-01T04:14:46.000Z</time>
      </trkpt>
      <trkpt lat="46.53211" lon="5.60968">
        <ele>519</ele>
        <time>2000-01-01T04:14:56.000Z</time>
      </trkpt>
      <trkpt lat="46.53225" lon="5.60976">
        <ele>524.3</ele>
        <time>2000-01-01T04:15:06.000Z</time>
      </trkpt>
      <trkpt lat="46.53239" lon="5.61">
        <ele>523</ele>
        <time>2000-01-01T04:15:16.000Z</time>
      </trkpt>
      <trkpt lat="46.5325" lon="5.61014">
        <ele>531.4</ele>
        <time>2000-01-01T04:15:26.000Z</time>
      </trkpt>
      <trkpt lat="46.53281" lon="5.61064">
        <ele>532</ele>
        <time>2000-01-01T04:15:36.000Z</time>
      </trkpt>
      <trkpt lat="46.53305" lon="5.61099">
        <ele>537</ele>
        <time>2000-01-01T04:15:46.000Z</time>
      </trkpt>
      <trkpt lat="46.53317" lon="5.6112">
        <ele>544.8</ele>
        <time>2000-01-01T04:15:56.000Z</time>
      </trkpt>
      <trkpt lat="46.53304" lon="5.6116">
        <ele>550</ele>
        <time>2000-01-01T04:16:06.000Z</time>
      </trkpt>
      <trkpt lat="46.53325" lon="5.61191">
        <ele>550</ele>
        <time>2000-01-01T04:16:16.000Z</time>
      </trkpt>
      <trkpt lat="46.53341" lon="5.6119">
        <ele>556.3</ele>
        <time>2000-01-01T04:16:26.000Z</time>
      </trkpt>
      <trkpt lat="46.53357" lon="5.61199">
        <ele>551</ele>
        <time>2000-01-01T04:16:36.000Z</time>
      </trkpt>
      <trkpt lat="46.53345" lon="5.61225">
        <ele>553</ele>
        <time>2000-01-01T04:16:46.000Z</time>
      </trkpt>
      <trkpt lat="46.53364" lon="5.6124">
        <ele>555</ele>
        <time>2000-01-01T04:16:56.000Z</time>
      </trkpt>
      <trkpt lat="46.53355" lon="5.6126">
        <ele>569.2</ele>
        <time>2000-01-01T04:17:06.000Z</time>
      </trkpt>
      <trkpt lat="46.53338" lon="5.61272">
        <ele>567</ele>
        <time>2000-01-01T04:17:16.000Z</time>
      </trkpt>
      <trkpt lat="46.53337" lon="5.61306">
        <ele>570</ele>
        <time>2000-01-01T04:17:26.000Z</time>
      </trkpt>
      <trkpt lat="46.53332" lon="5.61323">
        <ele>581.7</ele>
        <time>2000-01-01T04:17:36.000Z</time>
      </trkpt>
      <trkpt lat="46.53313" lon="5.61337">
        <ele>578</ele>
        <time>2000-01-01T04:17:46.000Z</time>
      </trkpt>
      <trkpt lat="46.5332" lon="5.61376">
        <ele>579</ele>
        <time>2000-01-01T04:17:56.000Z</time>
      </trkpt>
      <trkpt lat="46.53317" lon="5.61409">
        <ele>581</ele>
        <time>2000-01-01T04:18:06.000Z</time>
      </trkpt>
      <trkpt lat="46.53315" lon="5.61441">
        <ele>587</ele>
        <time>2000-01-01T04:18:16.000Z</time>
      </trkpt>
      <trkpt lat="46.53306" lon="5.61482">
        <ele>593</ele>
        <time>2000-01-01T04:18:26.000Z</time>
      </trkpt>
      <trkpt lat="46.53288" lon="5.61485">
        <ele>594</ele>
        <time>2000-01-01T04:18:36.000Z</time>
      </trkpt>
      <trkpt lat="46.53276" lon="5.61513">
        <ele>594</ele>
        <time>2000-01-01T04:18:46.000Z</time>
      </trkpt>
      <trkpt lat="46.53255" lon="5.6151">
        <ele>594</ele>
        <time>2000-01-01T04:18:56.000Z</time>
      </trkpt>
      <trkpt lat="46.5324" lon="5.61491">
        <ele>593</ele>
        <time>2000-01-01T04:19:06.000Z</time>
      </trkpt>
      <trkpt lat="46.53214" lon="5.61492">
        <ele>593</ele>
        <time>2000-01-01T04:19:16.000Z</time>
      </trkpt>
      <trkpt lat="46.53212" lon="5.6153">
        <ele>595</ele>
        <time>2000-01-01T04:19:26.000Z</time>
      </trkpt>
      <trkpt lat="46.53193" lon="5.61521">
        <ele>598</ele>
        <time>2000-01-01T04:19:36.000Z</time>
      </trkpt>
      <trkpt lat="46.53171" lon="5.61512">
        <ele>600</ele>
        <time>2000-01-01T04:19:46.000Z</time>
      </trkpt>
      <trkpt lat="46.53168" lon="5.61546">
        <ele>602</ele>
        <time>2000-01-01T04:19:56.000Z</time>
      </trkpt>
      <trkpt lat="46.53152" lon="5.61525">
        <ele>604</ele>
        <time>2000-01-01T04:20:06.000Z</time>
      </trkpt>
      <trkpt lat="46.53131" lon="5.61533">
        <ele>610</ele>
        <time>2000-01-01T04:20:16.000Z</time>
      </trkpt>
      <trkpt lat="46.53112" lon="5.6154">
        <ele>614</ele>
        <time>2000-01-01T04:20:26.000Z</time>
      </trkpt>
      <trkpt lat="46.53097" lon="5.61554">
        <ele>623.7</ele>
        <time>2000-01-01T04:20:36.000Z</time>
      </trkpt>
      <trkpt lat="46.53105" lon="5.6158">
        <ele>627</ele>
        <time>2000-01-01T04:20:46.000Z</time>
      </trkpt>
      <trkpt lat="46.53091" lon="5.61596">
        <ele>630.2</ele>
        <time>2000-01-01T04:20:56.000Z</time>
      </trkpt>
      <trkpt lat="46.53074" lon="5.61595">
        <ele>628</ele>
        <time>2000-01-01T04:21:06.000Z</time>
      </trkpt>
      <trkpt lat="46.5307" lon="5.61618">
        <ele>631.6</ele>
        <time>2000-01-01T04:21:16.000Z</time>
      </trkpt>
      <trkpt lat="46.5308" lon="5.61639">
        <ele>631</ele>
        <time>2000-01-01T04:21:26.000Z</time>
      </trkpt>
      <trkpt lat="46.53069" lon="5.61641">
        <ele>632.1</ele>
        <time>2000-01-01T04:21:36.000Z</time>
      </trkpt>
      <trkpt lat="46.53056" lon="5.61655">
        <ele>632</ele>
        <time>2000-01-01T04:21:46.000Z</time>
      </trkpt>
      <trkpt lat="46.5304" lon="5.61624">
        <ele>631</ele>
        <time>2000-01-01T04:21:56.000Z</time>
      </trkpt>
      <trkpt lat="46.53021" lon="5.61631">
        <ele>631</ele>
        <time>2000-01-01T04:22:06.000Z</time>
      </trkpt>
      <trkpt lat="46.53037" lon="5.61645">
        <ele>631</ele>
        <time>2000-01-01T04:22:16.000Z</time>
      </trkpt>
      <trkpt lat="46.53034" lon="5.61659">
        <ele>629.9</ele>
        <time>2000-01-01T04:22:26.000Z</time>
      </trkpt>
      <trkpt lat="46.53021" lon="5.61661">
        <ele>628</ele>
        <time>2000-01-01T04:22:36.000Z</time>
      </trkpt>
      <trkpt lat="46.53006" lon="5.61646">
        <ele>627.9</ele>
        <time>2000-01-01T04:22:46.000Z</time>
      </trkpt>
      <trkpt lat="46.52985" lon="5.61625">
        <ele>622</ele>
        <time>2000-01-01T04:22:56.000Z</time>
      </trkpt>
      <trkpt lat="46.52962" lon="5.61609">
        <ele>619</ele>
        <time>2000-01-01T04:23:06.000Z</time>
      </trkpt>
      <trkpt lat="46.52944" lon="5.61596">
        <ele>615</ele>
        <time>2000-01-01T04:23:16.000Z</time>
      </trkpt>
      <trkpt lat="46.5292" lon="5.61576">
        <ele>609</ele>
        <time>2000-01-01T04:23:26.000Z</time>
      </trkpt>
      <trkpt lat="46.529" lon="5.61555">
        <ele>608</ele>
        <time>2000-01-01T04:23:36.000Z</time>
      </trkpt>
      <trkpt lat="46.52873" lon="5.61535">
        <ele>609</ele>
        <time>2000-01-01T04:23:46.000Z</time>
      </trkpt>
      <trkpt lat="46.52846" lon="5.61523">
        <ele>610</ele>
        <time>2000-01-01T04:23:56.000Z</time>
      </trkpt>
      <trkpt lat="46.52827" lon="5.6152">
        <ele>609.6</ele>
        <time>2000-01-01T04:24:06.000Z</time>
      </trkpt>
      <trkpt lat="46.52817" lon="5.61504">
        <ele>611</ele>
        <time>2000-01-01T04:24:16.000Z</time>
      </trkpt>
      <trkpt lat="46.52806" lon="5.61484">
        <ele>611.1</ele>
        <time>2000-01-01T04:24:26.000Z</time>
      </trkpt>
      <trkpt lat="46.52782" lon="5.61457">
        <ele>612</ele>
        <time>2000-01-01T04:24:36.000Z</time>
      </trkpt>
      <trkpt lat="46.5278" lon="5.61457">
        <ele>608.7</ele>
        <time>2000-01-01T04:24:46.000Z</time>
      </trkpt>
      <trkpt lat="46.52762" lon="5.61439">
        <ele>612</ele>
        <time>2000-01-01T04:24:56.000Z</time>
      </trkpt>
      <trkpt lat="46.52743" lon="5.61431">
        <ele>613</ele>
        <time>2000-01-01T04:25:06.000Z</time>
      </trkpt>
      <trkpt lat="46.52721" lon="5.61424">
        <ele>613</ele>
        <time>2000-01-01T04:25:16.000Z</time>
      </trkpt>
      <trkpt lat="46.52715" lon="5.61425">
        <ele>604.1</ele>
        <time>2000-01-01T04:25:26.000Z</time>
      </trkpt>
      <trkpt lat="46.52712" lon="5.61424">
        <ele>603.8</ele>
        <time>2000-01-01T04:25:36.000Z</time>
      </trkpt>
      <trkpt lat="46.52689" lon="5.61419">
        <ele>606</ele>
        <time>2000-01-01T04:25:46.000Z</time>
      </trkpt>
      <trkpt lat="46.52651" lon="5.61409">
        <ele>595</ele>
        <time>2000-01-01T04:25:56.000Z</time>
      </trkpt>
      <trkpt lat="46.52629" lon="5.61408">
        <ele>588</ele>
        <time>2000-01-01T04:26:06.000Z</time>
      </trkpt>
      <trkpt lat="46.52602" lon="5.61402">
        <ele>585</ele>
        <time>2000-01-01T04:26:16.000Z</time>
      </trkpt>
      <trkpt lat="46.52578" lon="5.61396">
        <ele>577</ele>
        <time>2000-01-01T04:26:26.000Z</time>
      </trkpt>
      <trkpt lat="46.52562" lon="5.61388">
        <ele>569.7</ele>
        <time>2000-01-01T04:26:36.000Z</time>
      </trkpt>
      <trkpt lat="46.52549" lon="5.61377">
        <ele>566</ele>
        <time>2000-01-01T04:26:46.000Z</time>
      </trkpt>
      <trkpt lat="46.52529" lon="5.61348">
        <ele>557</ele>
        <time>2000-01-01T04:26:56.000Z</time>
      </trkpt>
      <trkpt lat="46.52499" lon="5.61303">
        <ele>546</ele>
        <time>2000-01-01T04:27:06.000Z</time>
      </trkpt>
      <trkpt lat="46.52483" lon="5.61288">
        <ele>539</ele>
        <time>2000-01-01T04:27:16.000Z</time>
      </trkpt>
      <trkpt lat="46.52469" lon="5.6128">
        <ele>539.4</ele>
        <time>2000-01-01T04:27:26.000Z</time>
      </trkpt>
      <trkpt lat="46.5246" lon="5.61276">
        <ele>537</ele>
        <time>2000-01-01T04:27:36.000Z</time>
      </trkpt>
      <trkpt lat="46.52456" lon="5.61302">
        <ele>536</ele>
        <time>2000-01-01T04:27:46.000Z</time>
      </trkpt>
      <trkpt lat="46.52476" lon="5.61353">
        <ele>530</ele>
        <time>2000-01-01T04:27:56.000Z</time>
      </trkpt>
      <trkpt lat="46.52471" lon="5.61388">
        <ele>528</ele>
        <time>2000-01-01T04:28:06.000Z</time>
      </trkpt>
      <trkpt lat="46.52449" lon="5.61353">
        <ele>530</ele>
        <time>2000-01-01T04:28:16.000Z</time>
      </trkpt>
      <trkpt lat="46.52436" lon="5.61354">
        <ele>542.5</ele>
        <time>2000-01-01T04:28:26.000Z</time>
      </trkpt>
      <trkpt lat="46.5242" lon="5.6134">
        <ele>533</ele>
        <time>2000-01-01T04:28:36.000Z</time>
      </trkpt>
      <trkpt lat="46.52408" lon="5.61338">
        <ele>538.2</ele>
        <time>2000-01-01T04:28:46.000Z</time>
      </trkpt>
      <trkpt lat="46.52387" lon="5.61339">
        <ele>537</ele>
        <time>2000-01-01T04:28:56.000Z</time>
      </trkpt>
      <trkpt lat="46.52379" lon="5.6134">
        <ele>537.3</ele>
        <time>2000-01-01T04:29:06.000Z</time>
      </trkpt>
      <trkpt lat="46.52371" lon="5.61343">
        <ele>537</ele>
        <time>2000-01-01T04:29:16.000Z</time>
      </trkpt>
      <trkpt lat="46.52359" lon="5.61353">
        <ele>546</ele>
        <time>2000-01-01T04:29:26.000Z</time>
      </trkpt>
      <trkpt lat="46.52353" lon="5.61365">
        <ele>535.7</ele>
        <time>2000-01-01T04:29:36.000Z</time>
      </trkpt>
      <trkpt lat="46.52351" lon="5.61373">
        <ele>535.4</ele>
        <time>2000-01-01T04:29:46.000Z</time>
      </trkpt>
      <trkpt lat="46.52352" lon="5.61371">
        <ele>535.5</ele>
        <time>2000-01-01T04:29:56.000Z</time>
      </trkpt>
      <trkpt lat="46.52353" lon="5.61371">
        <ele>543</ele>
        <time>2000-01-01T04:30:06.000Z</time>
      </trkpt>
      <trkpt lat="46.52353" lon="5.61368">
        <ele>535.7</ele>
        <time>2000-01-01T04:30:16.000Z</time>
      </trkpt>
      <trkpt lat="46.52343" lon="5.61344">
        <ele>541</ele>
        <time>2000-01-01T04:30:26.000Z</time>
      </trkpt>
      <trkpt lat="46.52329" lon="5.61322">
        <ele>538</ele>
        <time>2000-01-01T04:30:36.000Z</time>
      </trkpt>
      <trkpt lat="46.52303" lon="5.61306">
        <ele>533</ele>
        <time>2000-01-01T04:30:46.000Z</time>
      </trkpt>
      <trkpt lat="46.52287" lon="5.61289">
        <ele>529</ele>
        <time>2000-01-01T04:30:56.000Z</time>
      </trkpt>
      <trkpt lat="46.52281" lon="5.61281">
        <ele>524.3</ele>
        <time>2000-01-01T04:31:06.000Z</time>
      </trkpt>
      <trkpt lat="46.52275" lon="5.61302">
        <ele>526</ele>
        <time>2000-01-01T04:31:16.000Z</time>
      </trkpt>
      <trkpt lat="46.52272" lon="5.61311">
        <ele>523.1</ele>
        <time>2000-01-01T04:31:26.000Z</time>
      </trkpt>
      <trkpt lat="46.52265" lon="5.61321">
        <ele>521.6</ele>
        <time>2000-01-01T04:31:36.000Z</time>
      </trkpt>
      <trkpt lat="46.52263" lon="5.61325">
        <ele>520</ele>
        <time>2000-01-01T04:31:46.000Z</time>
      </trkpt>
      <trkpt lat="46.5226" lon="5.6133">
        <ele>520.3</ele>
        <time>2000-01-01T04:31:56.000Z</time>
      </trkpt>
      <trkpt lat="46.52259" lon="5.61336">
        <ele>519.7</ele>
        <time>2000-01-01T04:32:06.000Z</time>
      </trkpt>
      <trkpt lat="46.52259" lon="5.61345">
        <ele>518.7</ele>
        <time>2000-01-01T04:32:16.000Z</time>
      </trkpt>
      <trkpt lat="46.5226" lon="5.61346">
        <ele>518.9</ele>
        <time>2000-01-01T04:32:26.000Z</time>
      </trkpt>
      <trkpt lat="46.52263" lon="5.61352">
        <ele>513</ele>
        <time>2000-01-01T04:32:36.000Z</time>
      </trkpt>
      <trkpt lat="46.52262" lon="5.61359">
        <ele>518</ele>
        <time>2000-01-01T04:32:46.000Z</time>
      </trkpt>
      <trkpt lat="46.52253" lon="5.61371">
        <ele>514.6</ele>
        <time>2000-01-01T04:32:56.000Z</time>
      </trkpt>
      <trkpt lat="46.52244" lon="5.61365">
        <ele>509</ele>
        <time>2000-01-01T04:33:06.000Z</time>
      </trkpt>
      <trkpt lat="46.52246" lon="5.6139">
        <ele>511.5</ele>
        <time>2000-01-01T04:33:16.000Z</time>
      </trkpt>
      <trkpt lat="46.52252" lon="5.61411">
        <ele>507</ele>
        <time>2000-01-01T04:33:26.000Z</time>
      </trkpt>
      <trkpt lat="46.52272" lon="5.61457">
        <ele>505</ele>
        <time>2000-01-01T04:33:36.000Z</time>
      </trkpt>
      <trkpt lat="46.52284" lon="5.61481">
        <ele>504</ele>
        <time>2000-01-01T04:33:46.000Z</time>
      </trkpt>
      <trkpt lat="46.52307" lon="5.61519">
        <ele>503</ele>
        <time>2000-01-01T04:33:56.000Z</time>
      </trkpt>
      <trkpt lat="46.52333" lon="5.61556">
        <ele>501</ele>
        <time>2000-01-01T04:34:06.000Z</time>
      </trkpt>
      <trkpt lat="46.52341" lon="5.61573">
        <ele>505.8</ele>
        <time>2000-01-01T04:34:16.000Z</time>
      </trkpt>
      <trkpt lat="46.5235" lon="5.61617">
        <ele>499</ele>
        <time>2000-01-01T04:34:26.000Z</time>
      </trkpt>
      <trkpt lat="46.52372" lon="5.61639">
        <ele>497</ele>
        <time>2000-01-01T04:34:36.000Z</time>
      </trkpt>
      <trkpt lat="46.52386" lon="5.61648">
        <ele>499.3</ele>
        <time>2000-01-01T04:34:46.000Z</time>
      </trkpt>
      <trkpt lat="46.52398" lon="5.61665">
        <ele>495</ele>
        <time>2000-01-01T04:34:56.000Z</time>
      </trkpt>
      <trkpt lat="46.52415" lon="5.61683">
        <ele>495</ele>
        <time>2000-01-01T04:35:06.000Z</time>
      </trkpt>
      <trkpt lat="46.52429" lon="5.61701">
        <ele>495.7</ele>
        <time>2000-01-01T04:35:16.000Z</time>
      </trkpt>
      <trkpt lat="46.52436" lon="5.61712">
        <ele>493</ele>
        <time>2000-01-01T04:35:26.000Z</time>
      </trkpt>
      <trkpt lat="46.5245" lon="5.61727">
        <ele>494.9</ele>
        <time>2000-01-01T04:35:36.000Z</time>
      </trkpt>
      <trkpt lat="46.52467" lon="5.61763">
        <ele>490</ele>
        <time>2000-01-01T04:35:46.000Z</time>
      </trkpt>
      <trkpt lat="46.52467" lon="5.61781">
        <ele>494.3</ele>
        <time>2000-01-01T04:35:56.000Z</time>
      </trkpt>
      <trkpt lat="46.52456" lon="5.618">
        <ele>488</ele>
        <time>2000-01-01T04:36:06.000Z</time>
      </trkpt>
      <trkpt lat="46.52441" lon="5.61837">
        <ele>487</ele>
        <time>2000-01-01T04:36:16.000Z</time>
      </trkpt>
      <trkpt lat="46.52414" lon="5.61904">
        <ele>485</ele>
        <time>2000-01-01T04:36:26.000Z</time>
      </trkpt>
      <trkpt lat="46.52393" lon="5.61953">
        <ele>484</ele>
        <time>2000-01-01T04:36:36.000Z</time>
      </trkpt>
      <trkpt lat="46.52391" lon="5.61996">
        <ele>484</ele>
        <time>2000-01-01T04:36:46.000Z</time>
      </trkpt>
      <trkpt lat="46.5239" lon="5.62031">
        <ele>483</ele>
        <time>2000-01-01T04:36:56.000Z</time>
      </trkpt>
      <trkpt lat="46.52388" lon="5.62071">
        <ele>483</ele>
        <time>2000-01-01T04:37:06.000Z</time>
      </trkpt>
      <trkpt lat="46.52386" lon="5.62111">
        <ele>483</ele>
        <time>2000-01-01T04:37:16.000Z</time>
      </trkpt>
      <trkpt lat="46.52382" lon="5.62168">
        <ele>482</ele>
        <time>2000-01-01T04:37:26.000Z</time>
      </trkpt>
      <trkpt lat="46.5238" lon="5.62193">
        <ele>486.2</ele>
        <time>2000-01-01T04:37:36.000Z</time>
      </trkpt>
      <trkpt lat="46.52365" lon="5.6219">
        <ele>482</ele>
        <time>2000-01-01T04:37:46.000Z</time>
      </trkpt>
      <trkpt lat="46.52348" lon="5.62195">
        <ele>483.6</ele>
        <time>2000-01-01T04:37:56.000Z</time>
      </trkpt>
      <trkpt lat="46.52329" lon="5.62181">
        <ele>482</ele>
        <time>2000-01-01T04:38:06.000Z</time>
      </trkpt>
      <trkpt lat="46.52335" lon="5.62159">
        <ele>481</ele>
        <time>2000-01-01T04:38:16.000Z</time>
      </trkpt>
      <trkpt lat="46.52353" lon="5.62141">
        <ele>478</ele>
        <time>2000-01-01T04:38:26.000Z</time>
      </trkpt>
      <trkpt lat="46.52372" lon="5.62117">
        <ele>477</ele>
        <time>2000-01-01T04:38:36.000Z</time>
      </trkpt>
      <trkpt lat="46.52366" lon="5.62097">
        <ele>484.8</ele>
        <time>2000-01-01T04:38:46.000Z</time>
      </trkpt>
      <trkpt lat="46.52358" lon="5.62077">
        <ele>477</ele>
        <time>2000-01-01T04:38:56.000Z</time>
      </trkpt>
      <trkpt lat="46.52353" lon="5.62058">
        <ele>482.3</ele>
        <time>2000-01-01T04:39:06.000Z</time>
      </trkpt>
      <trkpt lat="46.52352" lon="5.62041">
        <ele>477</ele>
        <time>2000-01-01T04:39:16.000Z</time>
      </trkpt>
      <trkpt lat="46.5235" lon="5.62022">
        <ele>481.4</ele>
        <time>2000-01-01T04:39:26.000Z</time>
      </trkpt>
      <trkpt lat="46.52328" lon="5.61968">
        <ele>477</ele>
        <time>2000-01-01T04:39:36.000Z</time>
      </trkpt>
    </trkseg>
  </trk>
</gpx>